Observation data for Hobbs on 07/17/2019      Previous  Date       Current Mesonet Observations  Soil Data  Daily Summary Page  Observations in Plain Language
KHO1 170500Z 16010KT 29/11 A3007 RMK A01 T02880112  RH  034%=      5-min Rain = 0
KHO1 170501Z 16011KT 29/11 A3007 RMK A01 T02870113  RH  034%=      5-min Rain = 0
KHO1 170502Z 16013KT 29/11 A3007 RMK A01 T02870113  RH  034%=      5-min Rain = 0
KHO1 170503Z 16012KT 29/11 A3007 RMK A01 T02870113  RH  034%=      5-min Rain = 0
KHO1 170504Z 16010KT 29/11 A3007 RMK A01 T02870113  RH  034%=      5-min Rain = 0
KHO1 170505Z 16012KT 29/11 A3007 RMK A01 T02870113  RH  034%=      5-min Rain = 0
KHO1 170506Z 16011KT 29/11 A3007 RMK A01 T02870114  RH  034%=      5-min Rain = 0
KHO1 170507Z 16010KT 29/11 A3007 RMK A01 T02860114  RH  034%=      5-min Rain = 0
KHO1 170508Z 15010KT 29/11 A3007 RMK A01 T02860114  RH  034%=      5-min Rain = 0
KHO1 170509Z 15011KT 29/11 A3007 RMK A01 T02860114  RH  035%=      5-min Rain = 0
KHO1 170510Z 15012KT 29/12 A3007 RMK A01 T02860115  RH  035%=      5-min Rain = 0
KHO1 170511Z 16011KT 29/12 A3007 RMK A01 T02850116  RH  035%=      5-min Rain = 0
KHO1 170512Z 15011KT 29/12 A3007 RMK A01 T02850116  RH  035%=      5-min Rain = 0
KHO1 170513Z 16012KT 29/12 A3007 RMK A01 T02850117  RH  035%=      5-min Rain = 0
KHO1 170514Z 16012KT 29/12 A3007 RMK A01 T02850118  RH  036%=      5-min Rain = 0
KHO1 170515Z 16012KT 29/12 A3007 RMK A01 T02850118  RH  036%=      5-min Rain = 0
KHO1 170516Z 16013KT 29/12 A3007 RMK A01 T02850119  RH  036%=      5-min Rain = 0
KHO1 170517Z 15012KT 28/12 A3007 RMK A01 T02840119  RH  036%=      5-min Rain = 0
KHO1 170518Z 15009KT 28/12 A3007 RMK A01 T02840119  RH  036%=      5-min Rain = 0
KHO1 170519Z 15010KT 28/12 A3007 RMK A01 T02830120  RH  036%=      5-min Rain = 0
KHO1 170520Z 15011KT 28/12 A3007 RMK A01 T02830120  RH  036%=      5-min Rain = 0
KHO1 170521Z 16011KT 28/12 A3007 RMK A01 T02840120  RH  036%=      5-min Rain = 0
KHO1 170522Z 16013KT 28/12 A3007 RMK A01 T02830121  RH  037%=      5-min Rain = 0
KHO1 170523Z 16012KT 28/12 A3007 RMK A01 T02840122  RH  037%=      5-min Rain = 0
KHO1 170524Z 16012KT 28/12 A3007 RMK A01 T02830122  RH  037%=      5-min Rain = 0
KHO1 170525Z 16011KT 28/12 A3007 RMK A01 T02830123  RH  037%=      5-min Rain = 0
KHO1 170526Z 16012KT 28/12 A3007 RMK A01 T02830124  RH  037%=      5-min Rain = 0
KHO1 170527Z 17012KT 28/12 A3007 RMK A01 T02830124  RH  037%=      5-min Rain = 0
KHO1 170528Z 16013G18KT 28/13 A3007 RMK A01 T02830125  RH  038%=      5-min Rain = 0
KHO1 170529Z 16014KT 28/13 A3007 RMK A01 T02830126  RH  038%=      5-min Rain = 0
KHO1 170530Z 16014KT 28/13 A3007 RMK A01 T02840126  RH  038%=      5-min Rain = 0
KHO1 170531Z 16011KT 28/13 A3007 RMK A01 T02830127  RH  038%=      5-min Rain = 0
KHO1 170532Z 16012G17KT 28/13 A3007 RMK A01 T02830127  RH  038%=      5-min Rain = 0
KHO1 170533Z 16014KT 28/13 A3007 RMK A01 T02840128  RH  038%=      5-min Rain = 0
KHO1 170534Z 16012KT 28/13 A3007 RMK A01 T02840128  RH  038%=      5-min Rain = 0
KHO1 170535Z 16011KT 28/13 A3007 RMK A01 T02840129  RH  038%=      5-min Rain = 0
KHO1 170536Z 16012KT 28/13 A3007 RMK A01 T02830129  RH  039%=      5-min Rain = 0
KHO1 170537Z 16014KT 28/13 A3007 RMK A01 T02840129  RH  039%=      5-min Rain = 0
KHO1 170538Z 16014KT 28/13 A3007 RMK A01 T02840130  RH  039%=      5-min Rain = 0
KHO1 170539Z 16013KT 28/13 A3007 RMK A01 T02840130  RH  039%=      5-min Rain = 0
KHO1 170540Z 16012KT 28/13 A3007 RMK A01 T02840130  RH  039%=      5-min Rain = 0
KHO1 170541Z 16012KT 28/13 A3007 RMK A01 T02840130  RH  039%=      5-min Rain = 0
KHO1 170542Z 16012KT 28/13 A3007 RMK A01 T02840130  RH  039%=      5-min Rain = 0
KHO1 170543Z 16012KT 28/13 A3007 RMK A01 T02840131  RH  039%=      5-min Rain = 0
KHO1 170544Z 16013KT 28/13 A3007 RMK A01 T02840131  RH  039%=      5-min Rain = 0
KHO1 170545Z 16013KT 28/13 A3007 RMK A01 T02840131  RH  039%=      5-min Rain = 0
KHO1 170546Z 16012KT 28/13 A3007 RMK A01 T02830131  RH  039%=      5-min Rain = 0
KHO1 170547Z 16013KT 28/13 A3007 RMK A01 T02830131  RH  039%=      5-min Rain = 0
KHO1 170548Z 16011KT 28/13 A3007 RMK A01 T02830132  RH  039%=      5-min Rain = 0
KHO1 170549Z 16012KT 28/13 A3007 RMK A01 T02830132  RH  039%=      5-min Rain = 0
KHO1 170550Z 16014KT 28/13 A3007 RMK A01 T02830132  RH  040%=      5-min Rain = 0
KHO1 170551Z 16015KT 28/13 A3007 RMK A01 T02830133  RH  040%=      5-min Rain = 0
KHO1 170552Z 16014KT 28/13 A3007 RMK A01 T02830134  RH  040%=      5-min Rain = 0
KHO1 170553Z 16014KT 28/14 A3007 RMK A01 T02820136  RH  041%=      5-min Rain = 0
KHO1 170554Z 16012KT 28/14 A3007 RMK A01 T02810138  RH  041%=      5-min Rain = 0
KHO1 170555Z 16012KT 28/14 A3007 RMK A01 T02800137  RH  041%=      5-min Rain = 0
KHO1 170556Z 15015G20KT 28/14 A3007 RMK A01 T02800136  RH  041%=      5-min Rain = 0
KHO1 170557Z 16016KT 28/14 A3006 RMK A01 T02810136  RH  041%=      5-min Rain = 0
KHO1 170558Z 16014KT 28/14 A3006 RMK A01 T02810136  RH  041%=      5-min Rain = 0
KHO1 170559Z 15013KT 28/14 A3006 RMK A01 T02810136  RH  041%=      5-min Rain = 0
KHO1 170600Z 15015KT 28/14 A3006 RMK A01 T02810135  RH  041%=      5-min Rain = 0
KHO1 170601Z 16016KT 28/14 A3006 RMK A01 T02810135  RH  041%=      5-min Rain = 0
KHO1 170602Z 16015KT 28/14 A3006 RMK A01 T02810135  RH  041%=      5-min Rain = 0
KHO1 170603Z 16014G19KT 28/14 A3006 RMK A01 T02810136  RH  041%=      5-min Rain = 0
KHO1 170604Z 16015KT 28/14 A3006 RMK A01 T02810136  RH  041%=      5-min Rain = 0
KHO1 170605Z 16017KT 28/14 A3006 RMK A01 T02810136  RH  041%=      5-min Rain = 0
KHO1 170606Z 16016KT 28/14 A3006 RMK A01 T02810136  RH  041%=      5-min Rain = 0
KHO1 170607Z 16014KT 28/14 A3006 RMK A01 T02810136  RH  041%=      5-min Rain = 0
KHO1 170608Z 16014KT 28/14 A3006 RMK A01 T02800136  RH  041%=      5-min Rain = 0
KHO1 170609Z 16013KT 28/14 A3007 RMK A01 T02800136  RH  041%=      5-min Rain = 0
KHO1 170610Z 16013KT 28/14 A3006 RMK A01 T02800137  RH  041%=      5-min Rain = 0
KHO1 170611Z 16012KT 28/14 A3007 RMK A01 T02790137  RH  041%=      5-min Rain = 0
KHO1 170612Z 16012KT 28/14 A3007 RMK A01 T02790137  RH  042%=      5-min Rain = 0
KHO1 170613Z 16014KT 28/14 A3007 RMK A01 T02790138  RH  042%=      5-min Rain = 0
KHO1 170614Z 16015KT 28/14 A3007 RMK A01 T02790138  RH  042%=      5-min Rain = 0
KHO1 170615Z 17014KT 28/14 A3007 RMK A01 T02790138  RH  042%=      5-min Rain = 0
KHO1 170616Z 16014KT 28/14 A3007 RMK A01 T02790139  RH  042%=      5-min Rain = 0
KHO1 170617Z 16016KT 28/14 A3007 RMK A01 T02790139  RH  042%=      5-min Rain = 0
KHO1 170618Z 16014KT 28/14 A3007 RMK A01 T02790140  RH  042%=      5-min Rain = 0
KHO1 170619Z 16014KT 28/14 A3007 RMK A01 T02780140  RH  043%=      5-min Rain = 0
KHO1 170620Z 16013KT 28/14 A3007 RMK A01 T02780140  RH  043%=      5-min Rain = 0
KHO1 170621Z 17012KT 28/14 A3007 RMK A01 T02780140  RH  043%=      5-min Rain = 0
KHO1 170622Z 17011KT 28/14 A3007 RMK A01 T02780140  RH  043%=      5-min Rain = 0
KHO1 170623Z 17013KT 28/14 A3007 RMK A01 T02770140  RH  043%=      5-min Rain = 0
KHO1 170624Z 17014KT 28/14 A3007 RMK A01 T02770141  RH  043%=      5-min Rain = 0
KHO1 170625Z 17015KT 28/14 A3007 RMK A01 T02770141  RH  043%=      5-min Rain = 0
KHO1 170626Z 17014KT 28/14 A3007 RMK A01 T02770141  RH  043%=      5-min Rain = 0
KHO1 170627Z 17014KT 28/14 A3007 RMK A01 T02770141  RH  043%=      5-min Rain = 0
KHO1 170628Z 16014KT 28/14 A3007 RMK A01 T02770141  RH  043%=      5-min Rain = 0
KHO1 170629Z 17013KT 28/14 A3007 RMK A01 T02770141  RH  043%=      5-min Rain = 0
KHO1 170630Z 17014KT 28/14 A3007 RMK A01 T02770141  RH  043%=      5-min Rain = 0
KHO1 170631Z 16012KT 28/14 A3007 RMK A01 T02760141  RH  044%=      5-min Rain = 0
KHO1 170632Z 17013KT 28/14 A3007 RMK A01 T02760142  RH  044%=      5-min Rain = 0
KHO1 170633Z 17010KT 28/14 A3007 RMK A01 T02760142  RH  044%=      5-min Rain = 0
KHO1 170634Z 17009KT 28/14 A3008 RMK A01 T02750142  RH  044%=      5-min Rain = 0
KHO1 170635Z 17010KT 27/14 A3007 RMK A01 T02740142  RH  044%=      5-min Rain = 0
KHO1 170636Z 17011KT 27/14 A3008 RMK A01 T02740142  RH  044%=      5-min Rain = 0
KHO1 170637Z 17009KT 27/14 A3008 RMK A01 T02740142  RH  044%=      5-min Rain = 0
KHO1 170638Z 17011KT 27/14 A3008 RMK A01 T02730143  RH  045%=      5-min Rain = 0
KHO1 170639Z 17010KT 27/14 A3008 RMK A01 T02730143  RH  045%=      5-min Rain = 0
KHO1 170640Z 17012KT 27/14 A3008 RMK A01 T02730143  RH  045%=      5-min Rain = 0
KHO1 170641Z 17012KT 27/14 A3008 RMK A01 T02730144  RH  045%=      5-min Rain = 0
KHO1 170642Z 18013KT 27/14 A3008 RMK A01 T02730144  RH  045%=      5-min Rain = 0
KHO1 170643Z 17011KT 27/14 A3008 RMK A01 T02730144  RH  045%=      5-min Rain = 0
KHO1 170644Z 17009KT 27/14 A3008 RMK A01 T02730144  RH  045%=      5-min Rain = 0
KHO1 170645Z 17012KT 27/14 A3008 RMK A01 T02720144  RH  045%=      5-min Rain = 0
KHO1 170646Z 18009KT 27/15 A3008 RMK A01 T02720145  RH  046%=      5-min Rain = 0
KHO1 170647Z 18011KT 27/14 A3008 RMK A01 T02720144  RH  046%=      5-min Rain = 0
KHO1 170648Z 18011KT 27/15 A3008 RMK A01 T02720145  RH  046%=      5-min Rain = 0
KHO1 170649Z 18012KT 27/15 A3008 RMK A01 T02720145  RH  046%=      5-min Rain = 0
KHO1 170650Z 18012KT 27/15 A3008 RMK A01 T02720145  RH  046%=      5-min Rain = 0
KHO1 170651Z 17010G15KT 27/15 A3008 RMK A01 T02720145  RH  046%=      5-min Rain = 0
KHO1 170652Z 17009KT 27/15 A3008 RMK A01 T02710145  RH  046%=      5-min Rain = 0
KHO1 170653Z 18010KT 27/15 A3008 RMK A01 T02710146  RH  046%=      5-min Rain = 0
KHO1 170654Z 18010KT 27/15 A3008 RMK A01 T02710146  RH  046%=      5-min Rain = 0
KHO1 170655Z 18011KT 27/15 A3008 RMK A01 T02700146  RH  047%=      5-min Rain = 0
KHO1 170656Z 17010KT 27/15 A3008 RMK A01 T02700146  RH  047%=      5-min Rain = 0
KHO1 170657Z 18011KT 27/15 A3008 RMK A01 T02700147  RH  047%=      5-min Rain = 0
KHO1 170658Z 19010KT 27/15 A3008 RMK A01 T02700147  RH  047%=      5-min Rain = 0
KHO1 170659Z 18009KT 27/15 A3009 RMK A01 T02700147  RH  047%=      5-min Rain = 0
KHO1 170700Z 18009KT 27/15 A3009 RMK A01 T02690147  RH  047%=      5-min Rain = 0
KHO1 170701Z 18010KT 27/15 A3009 RMK A01 T02690147  RH  047%=      5-min Rain = 0
KHO1 170702Z 18010KT 27/15 A3009 RMK A01 T02690148  RH  047%=      5-min Rain = 0
KHO1 170703Z 18010KT 27/15 A3008 RMK A01 T02690148  RH  048%=      5-min Rain = 0
KHO1 170704Z 18011KT 27/15 A3008 RMK A01 T02680148  RH  048%=      5-min Rain = 0
KHO1 170705Z 18010KT 27/15 A3008 RMK A01 T02680148  RH  048%=      5-min Rain = 0
KHO1 170706Z 18009KT 27/15 A3008 RMK A01 T02680149  RH  048%=      5-min Rain = 0
KHO1 170707Z 18010KT 27/15 A3008 RMK A01 T02680149  RH  048%=      5-min Rain = 0
KHO1 170708Z 18009KT 27/15 A3008 RMK A01 T02680149  RH  048%=      5-min Rain = 0
KHO1 170709Z 18009KT 27/15 A3008 RMK A01 T02670149  RH  048%=      5-min Rain = 0
KHO1 170710Z 18009KT 27/15 A3008 RMK A01 T02670149  RH  048%=      5-min Rain = 0
KHO1 170711Z 18009KT 27/15 A3008 RMK A01 T02670150  RH  048%=      5-min Rain = 0
KHO1 170712Z 18010KT 27/15 A3008 RMK A01 T02670150  RH  049%=      5-min Rain = 0
KHO1 170713Z 18010KT 27/15 A3008 RMK A01 T02670150  RH  049%=      5-min Rain = 0
KHO1 170714Z 18010KT 27/15 A3008 RMK A01 T02670150  RH  049%=      5-min Rain = 0
KHO1 170715Z 18010KT 27/15 A3008 RMK A01 T02670150  RH  049%=      5-min Rain = 0
KHO1 170716Z 18010KT 27/15 A3008 RMK A01 T02670151  RH  049%=      5-min Rain = 0
KHO1 170717Z 17011KT 27/15 A3008 RMK A01 T02660151  RH  049%=      5-min Rain = 0
KHO1 170718Z 18012KT 27/15 A3008 RMK A01 T02670151  RH  049%=      5-min Rain = 0
KHO1 170719Z 17010KT 27/15 A3008 RMK A01 T02670151  RH  049%=      5-min Rain = 0
KHO1 170720Z 17009KT 27/15 A3008 RMK A01 T02660151  RH  049%=      5-min Rain = 0
KHO1 170721Z 17011KT 27/15 A3008 RMK A01 T02660152  RH  049%=      5-min Rain = 0
KHO1 170722Z 17011KT 27/15 A3008 RMK A01 T02660152  RH  049%=      5-min Rain = 0
KHO1 170723Z 17009KT 27/15 A3008 RMK A01 T02660152  RH  050%=      5-min Rain = 0
KHO1 170724Z 17010KT 27/15 A3008 RMK A01 T02660152  RH  050%=      5-min Rain = 0
KHO1 170725Z 17011KT 27/15 A3008 RMK A01 T02660152  RH  050%=      5-min Rain = 0
KHO1 170726Z 18010KT 27/15 A3008 RMK A01 T02650152  RH  050%=      5-min Rain = 0
KHO1 170727Z 17010KT 27/15 A3008 RMK A01 T02650152  RH  050%=      5-min Rain = 0
KHO1 170728Z 18008KT 27/15 A3008 RMK A01 T02650153  RH  050%=      5-min Rain = 0
KHO1 170729Z 17009KT 26/15 A3008 RMK A01 T02640153  RH  050%=      5-min Rain = 0
KHO1 170730Z 18009KT 26/15 A3008 RMK A01 T02640153  RH  050%=      5-min Rain = 0
KHO1 170731Z 18010KT 26/15 A3008 RMK A01 T02640153  RH  050%=      5-min Rain = 0
KHO1 170732Z 18010KT 26/15 A3008 RMK A01 T02640153  RH  050%=      5-min Rain = 0
KHO1 170733Z 18011KT 26/15 A3008 RMK A01 T02640153  RH  050%=      5-min Rain = 0
KHO1 170734Z 18010KT 26/15 A3008 RMK A01 T02640153  RH  050%=      5-min Rain = 0
KHO1 170735Z 18009KT 26/15 A3008 RMK A01 T02640153  RH  051%=      5-min Rain = 0
KHO1 170736Z 18010KT 26/15 A3008 RMK A01 T02630154  RH  051%=      5-min Rain = 0
KHO1 170737Z 17009KT 26/15 A3008 RMK A01 T02630154  RH  051%=      5-min Rain = 0
KHO1 170738Z 18011KT 26/15 A3008 RMK A01 T02630154  RH  051%=      5-min Rain = 0
KHO1 170739Z 18009KT 26/15 A3008 RMK A01 T02630154  RH  051%=      5-min Rain = 0
KHO1 170740Z 18011KT 26/15 A3008 RMK A01 T02630154  RH  051%=      5-min Rain = 0
KHO1 170741Z 18011KT 26/15 A3008 RMK A01 T02630154  RH  051%=      5-min Rain = 0
KHO1 170742Z 18010G15KT 26/15 A3008 RMK A01 T02630154  RH  051%=      5-min Rain = 0
KHO1 170743Z 17010KT 26/15 A3008 RMK A01 T02630154  RH  051%=      5-min Rain = 0
KHO1 170744Z 17009KT 26/15 A3008 RMK A01 T02620154  RH  051%=      5-min Rain = 0
KHO1 170745Z 18010KT 26/15 A3008 RMK A01 T02620154  RH  051%=      5-min Rain = 0
KHO1 170746Z 17008KT 26/15 A3008 RMK A01 T02620154  RH  052%=      5-min Rain = 0
KHO1 170747Z 18009KT 26/15 A3008 RMK A01 T02610154  RH  052%=      5-min Rain = 0
KHO1 170748Z 17010KT 26/16 A3008 RMK A01 T02610155  RH  052%=      5-min Rain = 0
KHO1 170749Z 17009KT 26/16 A3008 RMK A01 T02610155  RH  052%=      5-min Rain = 0
KHO1 170750Z 17009KT 26/16 A3008 RMK A01 T02610155  RH  052%=      5-min Rain = 0
KHO1 170751Z 17010KT 26/16 A3008 RMK A01 T02610155  RH  052%=      5-min Rain = 0
KHO1 170752Z 17008KT 26/16 A3008 RMK A01 T02600155  RH  052%=      5-min Rain = 0
KHO1 170753Z 17009KT 26/16 A3008 RMK A01 T02600155  RH  052%=      5-min Rain = 0
KHO1 170754Z 17009KT 26/16 A3008 RMK A01 T02600155  RH  052%=      5-min Rain = 0
KHO1 170755Z 17010KT 26/16 A3008 RMK A01 T02600155  RH  052%=      5-min Rain = 0
KHO1 170756Z 17009KT 26/16 A3008 RMK A01 T02600155  RH  052%=      5-min Rain = 0
KHO1 170757Z 17009KT 26/16 A3008 RMK A01 T02600155  RH  052%=      5-min Rain = 0
KHO1 170758Z 17010KT 26/16 A3008 RMK A01 T02590155  RH  053%=      5-min Rain = 0
KHO1 170759Z 17008KT 26/16 A3008 RMK A01 T02600155  RH  053%=      5-min Rain = 0
KHO1 170800Z 17008KT 26/16 A3008 RMK A01 T02590155  RH  053%=      5-min Rain = 0
KHO1 170801Z 17008KT 26/16 A3008 RMK A01 T02590155  RH  053%=      5-min Rain = 0
KHO1 170802Z 16008KT 26/16 A3008 RMK A01 T02590155  RH  053%=      5-min Rain = 0
KHO1 170803Z 17008KT 26/16 A3008 RMK A01 T02590156  RH  053%=      5-min Rain = 0
KHO1 170804Z 16008KT 26/16 A3008 RMK A01 T02580155  RH  053%=      5-min Rain = 0
KHO1 170805Z 16008KT 26/16 A3008 RMK A01 T02580155  RH  053%=      5-min Rain = 0
KHO1 170806Z 16008KT 26/16 A3008 RMK A01 T02570156  RH  053%=      5-min Rain = 0
KHO1 170807Z 16008KT 26/16 A3008 RMK A01 T02570156  RH  053%=      5-min Rain = 0
KHO1 170808Z 16009KT 26/16 A3008 RMK A01 T02580156  RH  053%=      5-min Rain = 0
KHO1 170809Z 16008KT 26/16 A3008 RMK A01 T02580156  RH  053%=      5-min Rain = 0
KHO1 170810Z 16008KT 26/16 A3008 RMK A01 T02570156  RH  053%=      5-min Rain = 0
KHO1 170811Z 16008KT 26/16 A3008 RMK A01 T02570156  RH  054%=      5-min Rain = 0
KHO1 170812Z 16007KT 26/16 A3008 RMK A01 T02570156  RH  053%=      5-min Rain = 0
KHO1 170813Z 16007KT 26/16 A3008 RMK A01 T02570156  RH  054%=      5-min Rain = 0
KHO1 170814Z 16008KT 26/16 A3008 RMK A01 T02570156  RH  054%=      5-min Rain = 0
KHO1 170815Z 16008KT 26/16 A3008 RMK A01 T02560156  RH  054%=      5-min Rain = 0
KHO1 170816Z 16008KT 26/16 A3008 RMK A01 T02560156  RH  054%=      5-min Rain = 0
KHO1 170817Z 16009KT 26/16 A3008 RMK A01 T02550156  RH  054%=      5-min Rain = 0
KHO1 170818Z 16008KT 26/16 A3008 RMK A01 T02550156  RH  054%=      5-min Rain = 0
KHO1 170819Z 16008KT 26/16 A3008 RMK A01 T02560157  RH  054%=      5-min Rain = 0
KHO1 170820Z 16010KT 26/16 A3008 RMK A01 T02560157  RH  054%=      5-min Rain = 0
KHO1 170821Z 16008KT 26/16 A3008 RMK A01 T02560157  RH  054%=      5-min Rain = 0
KHO1 170822Z 16008KT 26/16 A3008 RMK A01 T02560157  RH  054%=      5-min Rain = 0
KHO1 170823Z 16007KT 26/16 A3008 RMK A01 T02560157  RH  054%=      5-min Rain = 0
KHO1 170824Z 16008KT 26/16 A3008 RMK A01 T02560157  RH  054%=      5-min Rain = 0
KHO1 170825Z 16010KT 26/16 A3008 RMK A01 T02560157  RH  054%=      5-min Rain = 0
KHO1 170826Z 16010KT 26/16 A3008 RMK A01 T02560157  RH  054%=      5-min Rain = 0
KHO1 170827Z 16009KT 26/16 A3008 RMK A01 T02560157  RH  054%=      5-min Rain = 0
KHO1 170828Z 16009KT 26/16 A3008 RMK A01 T02560157  RH  054%=      5-min Rain = 0
KHO1 170829Z 16009KT 26/16 A3008 RMK A01 T02560157  RH  054%=      5-min Rain = 0
KHO1 170830Z 16009KT 26/16 A3008 RMK A01 T02560157  RH  054%=      5-min Rain = 0
KHO1 170831Z 16009KT 26/16 A3008 RMK A01 T02550157  RH  055%=      5-min Rain = 0
KHO1 170832Z 16009KT 26/16 A3008 RMK A01 T02550158  RH  055%=      5-min Rain = 0
KHO1 170833Z 17009KT 26/16 A3008 RMK A01 T02550158  RH  055%=      5-min Rain = 0
KHO1 170834Z 17010KT 26/16 A3008 RMK A01 T02550158  RH  055%=      5-min Rain = 0
KHO1 170835Z 17010KT 26/16 A3008 RMK A01 T02560158  RH  055%=      5-min Rain = 0
KHO1 170836Z 17010KT 26/16 A3008 RMK A01 T02550158  RH  055%=      5-min Rain = 0
KHO1 170837Z 17009KT 26/16 A3008 RMK A01 T02550158  RH  055%=      5-min Rain = 0
KHO1 170838Z 17009KT 26/16 A3008 RMK A01 T02550158  RH  055%=      5-min Rain = 0
KHO1 170839Z 17010KT 26/16 A3008 RMK A01 T02550158  RH  055%=      5-min Rain = 0
KHO1 170840Z 17009KT 26/16 A3008 RMK A01 T02550158  RH  055%=      5-min Rain = 0
KHO1 170841Z 17010KT 26/16 A3008 RMK A01 T02550158  RH  055%=      5-min Rain = 0
KHO1 170842Z 17010KT 26/16 A3008 RMK A01 T02550159  RH  055%=      5-min Rain = 0
KHO1 170843Z 17009KT 26/16 A3008 RMK A01 T02550159  RH  055%=      5-min Rain = 0
KHO1 170844Z 17009KT 26/16 A3008 RMK A01 T02550159  RH  055%=      5-min Rain = 0
KHO1 170845Z 17008KT 26/16 A3008 RMK A01 T02550159  RH  055%=      5-min Rain = 0
KHO1 170846Z 16009KT 25/16 A3008 RMK A01 T02540159  RH  056%=      5-min Rain = 0
KHO1 170847Z 17010KT 26/16 A3008 RMK A01 T02550159  RH  056%=      5-min Rain = 0
KHO1 170848Z 17010KT 26/16 A3008 RMK A01 T02550160  RH  056%=      5-min Rain = 0
KHO1 170849Z 17010KT 26/16 A3008 RMK A01 T02550159  RH  056%=      5-min Rain = 0
KHO1 170850Z 17009KT 25/16 A3008 RMK A01 T02540159  RH  056%=      5-min Rain = 0
KHO1 170851Z 17009KT 25/16 A3007 RMK A01 T02540160  RH  056%=      5-min Rain = 0
KHO1 170852Z 17009KT 25/16 A3008 RMK A01 T02540160  RH  056%=      5-min Rain = 0
KHO1 170853Z 17010KT 25/16 A3008 RMK A01 T02540160  RH  056%=      5-min Rain = 0
KHO1 170854Z 17010KT 26/16 A3008 RMK A01 T02550160  RH  056%=      5-min Rain = 0
KHO1 170855Z 17008KT 26/16 A3008 RMK A01 T02550160  RH  056%=      5-min Rain = 0
KHO1 170856Z 17009KT 25/16 A3008 RMK A01 T02540160  RH  056%=      5-min Rain = 0
KHO1 170857Z 17008KT 25/16 A3008 RMK A01 T02540160  RH  056%=      5-min Rain = 0
KHO1 170858Z 17008KT 25/16 A3008 RMK A01 T02540160  RH  056%=      5-min Rain = 0
KHO1 170859Z 17009KT 25/16 A3008 RMK A01 T02530160  RH  056%=      5-min Rain = 0
KHO1 170900Z 17009KT 25/16 A3008 RMK A01 T02540161  RH  056%=      5-min Rain = 0
KHO1 170901Z 17008KT 25/16 A3008 RMK A01 T02540161  RH  056%=      5-min Rain = 0
KHO1 170902Z 17007KT 25/16 A3008 RMK A01 T02540160  RH  056%=      5-min Rain = 0
KHO1 170903Z 17009KT 25/16 A3008 RMK A01 T02530160  RH  056%=      5-min Rain = 0
KHO1 170904Z 17008KT 25/16 A3008 RMK A01 T02540161  RH  056%=      5-min Rain = 0
KHO1 170905Z 17008KT 25/16 A3008 RMK A01 T02530161  RH  056%=      5-min Rain = 0
KHO1 170906Z 16009KT 25/16 A3008 RMK A01 T02530161  RH  057%=      5-min Rain = 0
KHO1 170907Z 17008KT 25/16 A3008 RMK A01 T02530161  RH  057%=      5-min Rain = 0
KHO1 170908Z 16008KT 25/16 A3008 RMK A01 T02530161  RH  057%=      5-min Rain = 0
KHO1 170909Z 17008KT 25/16 A3008 RMK A01 T02530161  RH  057%=      5-min Rain = 0
KHO1 170910Z 17009KT 25/16 A3008 RMK A01 T02530161  RH  057%=      5-min Rain = 0
KHO1 170911Z 17008KT 25/16 A3008 RMK A01 T02530161  RH  057%=      5-min Rain = 0
KHO1 170912Z 17007KT 25/16 A3008 RMK A01 T02520161  RH  057%=      5-min Rain = 0
KHO1 170913Z 17009KT 25/16 A3008 RMK A01 T02520161  RH  057%=      5-min Rain = 0
KHO1 170914Z 17007KT 25/16 A3008 RMK A01 T02520161  RH  057%=      5-min Rain = 0
KHO1 170915Z 16008KT 25/16 A3008 RMK A01 T02520161  RH  057%=      5-min Rain = 0
KHO1 170916Z 17006KT 25/16 A3008 RMK A01 T02520161  RH  057%=      5-min Rain = 0
KHO1 170917Z 17007KT 25/16 A3008 RMK A01 T02520161  RH  057%=      5-min Rain = 0
KHO1 170918Z 17008KT 25/16 A3008 RMK A01 T02510161  RH  057%=      5-min Rain = 0
KHO1 170919Z 17008KT 25/16 A3008 RMK A01 T02510161  RH  057%=      5-min Rain = 0
KHO1 170920Z 17008KT 25/16 A3008 RMK A01 T02510161  RH  057%=      5-min Rain = 0
KHO1 170921Z 16009KT 25/16 A3008 RMK A01 T02510161  RH  057%=      5-min Rain = 0
KHO1 170922Z 16010KT 25/16 A3008 RMK A01 T02510161  RH  057%=      5-min Rain = 0
KHO1 170923Z 16010KT 25/16 A3008 RMK A01 T02520161  RH  057%=      5-min Rain = 0
KHO1 170924Z 16009KT 25/16 A3008 RMK A01 T02510161  RH  057%=      5-min Rain = 0
KHO1 170925Z 16009KT 25/16 A3007 RMK A01 T02510161  RH  058%=      5-min Rain = 0
KHO1 170926Z 16009KT 25/16 A3007 RMK A01 T02500161  RH  058%=      5-min Rain = 0
KHO1 170927Z 16010KT 25/16 A3007 RMK A01 T02500162  RH  058%=      5-min Rain = 0
KHO1 170928Z 16009KT 25/16 A3007 RMK A01 T02510162  RH  058%=      5-min Rain = 0
KHO1 170929Z 15009KT 25/16 A3007 RMK A01 T02500162  RH  058%=      5-min Rain = 0
KHO1 170930Z 16009KT 25/16 A3007 RMK A01 T02500162  RH  058%=      5-min Rain = 0
KHO1 170931Z 16009KT 25/16 A3007 RMK A01 T02500162  RH  058%=      5-min Rain = 0
KHO1 170932Z 16009KT 25/16 A3007 RMK A01 T02500162  RH  058%=      5-min Rain = 0
KHO1 170933Z 16010KT 25/16 A3007 RMK A01 T02500162  RH  058%=      5-min Rain = 0
KHO1 170934Z 16008KT 25/16 A3007 RMK A01 T02500162  RH  058%=      5-min Rain = 0
KHO1 170935Z 16009KT 25/16 A3007 RMK A01 T02500162  RH  058%=      5-min Rain = 0
KHO1 170936Z 16009KT 25/16 A3007 RMK A01 T02500162  RH  058%=      5-min Rain = 0
KHO1 170937Z 16010KT 25/16 A3007 RMK A01 T02500162  RH  058%=      5-min Rain = 0
KHO1 170938Z 16010KT 25/16 A3007 RMK A01 T02500162  RH  058%=      5-min Rain = 0
KHO1 170939Z 16010KT 25/16 A3007 RMK A01 T02510163  RH  058%=      5-min Rain = 0
KHO1 170940Z 16010KT 25/16 A3007 RMK A01 T02510162  RH  058%=      5-min Rain = 0
KHO1 170941Z 16010KT 25/16 A3007 RMK A01 T02500162  RH  058%=      5-min Rain = 0
KHO1 170942Z 16009KT 25/16 A3007 RMK A01 T02500162  RH  058%=      5-min Rain = 0
KHO1 170943Z 17008KT 25/16 A3007 RMK A01 T02490162  RH  058%=      5-min Rain = 0
KHO1 170944Z 16010KT 25/16 A3007 RMK A01 T02490162  RH  059%=      5-min Rain = 0
KHO1 170945Z 16011KT 25/16 A3007 RMK A01 T02500163  RH  059%=      5-min Rain = 0
KHO1 170946Z 16010KT 25/16 A3007 RMK A01 T02500163  RH  058%=      5-min Rain = 0
KHO1 170947Z 16010KT 25/16 A3007 RMK A01 T02500163  RH  058%=      5-min Rain = 0
KHO1 170948Z 16009KT 25/16 A3007 RMK A01 T02490163  RH  059%=      5-min Rain = 0
KHO1 170949Z 16010KT 25/16 A3007 RMK A01 T02490163  RH  059%=      5-min Rain = 0
KHO1 170950Z 16011KT 25/16 A3007 RMK A01 T02490163  RH  059%=      5-min Rain = 0
KHO1 170951Z 16009KT 25/16 A3007 RMK A01 T02490163  RH  059%=      5-min Rain = 0
KHO1 170952Z 16009KT 25/16 A3007 RMK A01 T02480163  RH  059%=      5-min Rain = 0
KHO1 170953Z 16011KT 25/16 A3007 RMK A01 T02470163  RH  059%=      5-min Rain = 0
KHO1 170954Z 16010KT 25/16 A3007 RMK A01 T02480164  RH  059%=      5-min Rain = 0
KHO1 170955Z 16009KT 25/16 A3007 RMK A01 T02480164  RH  060%=      5-min Rain = 0
KHO1 170956Z 16010KT 25/16 A3007 RMK A01 T02480164  RH  060%=      5-min Rain = 0
KHO1 170957Z 16011KT 25/16 A3007 RMK A01 T02470164  RH  060%=      5-min Rain = 0
KHO1 170958Z 16011KT 25/16 A3007 RMK A01 T02470164  RH  060%=      5-min Rain = 0
KHO1 170959Z 16012KT 25/17 A3007 RMK A01 T02480165  RH  060%=      5-min Rain = 0
KHO1 171000Z 16013KT 25/17 A3007 RMK A01 T02480165  RH  060%=      5-min Rain = 0
KHO1 171001Z 16012KT 25/17 A3007 RMK A01 T02480165  RH  060%=      5-min Rain = 0
KHO1 171002Z 16011KT 25/17 A3007 RMK A01 T02480165  RH  060%=      5-min Rain = 0
KHO1 171003Z 16012KT 25/17 A3007 RMK A01 T02480165  RH  060%=      5-min Rain = 0
KHO1 171004Z 16011KT 25/17 A3007 RMK A01 T02480165  RH  060%=      5-min Rain = 0
KHO1 171005Z 16011KT 25/17 A3007 RMK A01 T02470165  RH  060%=      5-min Rain = 0
KHO1 171006Z 16011KT 25/17 A3007 RMK A01 T02470165  RH  060%=      5-min Rain = 0
KHO1 171007Z 16011KT 25/17 A3007 RMK A01 T02470165  RH  060%=      5-min Rain = 0
KHO1 171008Z 16009KT 25/17 A3007 RMK A01 T02470165  RH  060%=      5-min Rain = 0
KHO1 171009Z 16010KT 25/17 A3007 RMK A01 T02460165  RH  061%=      5-min Rain = 0
KHO1 171010Z 16009KT 25/17 A3007 RMK A01 T02450165  RH  061%=      5-min Rain = 0
KHO1 171011Z 16010KT 25/17 A3007 RMK A01 T02450165  RH  061%=      5-min Rain = 0
KHO1 171012Z 16010KT 25/17 A3007 RMK A01 T02450166  RH  061%=      5-min Rain = 0
KHO1 171013Z 16009KT 25/17 A3007 RMK A01 T02450166  RH  061%=      5-min Rain = 0
KHO1 171014Z 16010KT 24/17 A3007 RMK A01 T02440166  RH  061%=      5-min Rain = 0
KHO1 171015Z 16010KT 24/17 A3007 RMK A01 T02440165  RH  061%=      5-min Rain = 0
KHO1 171016Z 16010KT 24/17 A3007 RMK A01 T02440166  RH  061%=      5-min Rain = 0
KHO1 171017Z 16010KT 24/17 A3007 RMK A01 T02440165  RH  061%=      5-min Rain = 0
KHO1 171018Z 16012KT 24/17 A3007 RMK A01 T02440165  RH  061%=      5-min Rain = 0
KHO1 171019Z 16011KT 24/17 A3007 RMK A01 T02440166  RH  061%=      5-min Rain = 0
KHO1 171020Z 16011KT 24/17 A3007 RMK A01 T02440165  RH  061%=      5-min Rain = 0
KHO1 171021Z 16011KT 24/17 A3007 RMK A01 T02440165  RH  061%=      5-min Rain = 0
KHO1 171022Z 16011KT 24/17 A3007 RMK A01 T02440165  RH  061%=      5-min Rain = 0
KHO1 171023Z 16012KT 24/17 A3007 RMK A01 T02440165  RH  061%=      5-min Rain = 0
KHO1 171024Z 16009KT 24/17 A3007 RMK A01 T02440165  RH  061%=      5-min Rain = 0
KHO1 171025Z 16010KT 24/17 A3007 RMK A01 T02430165  RH  062%=      5-min Rain = 0
KHO1 171026Z 16011KT 24/17 A3007 RMK A01 T02430165  RH  062%=      5-min Rain = 0
KHO1 171027Z 16010KT 24/17 A3007 RMK A01 T02430165  RH  062%=      5-min Rain = 0
KHO1 171028Z 16010KT 24/17 A3007 RMK A01 T02430165  RH  062%=      5-min Rain = 0
KHO1 171029Z 16010KT 24/17 A3007 RMK A01 T02420165  RH  062%=      5-min Rain = 0
KHO1 171030Z 16010KT 24/17 A3007 RMK A01 T02420165  RH  062%=      5-min Rain = 0
KHO1 171031Z 16009KT 24/17 A3007 RMK A01 T02420165  RH  062%=      5-min Rain = 0
KHO1 171032Z 16009KT 24/17 A3007 RMK A01 T02420165  RH  062%=      5-min Rain = 0
KHO1 171033Z 16011KT 24/17 A3007 RMK A01 T02420165  RH  062%=      5-min Rain = 0
KHO1 171034Z 16011KT 24/17 A3007 RMK A01 T02420165  RH  062%=      5-min Rain = 0
KHO1 171035Z 16010KT 24/17 A3007 RMK A01 T02420165  RH  062%=      5-min Rain = 0
KHO1 171036Z 16011KT 24/17 A3007 RMK A01 T02410165  RH  062%=      5-min Rain = 0
KHO1 171037Z 16010KT 24/17 A3007 RMK A01 T02410165  RH  062%=      5-min Rain = 0
KHO1 171038Z 16010KT 24/17 A3007 RMK A01 T02410165  RH  062%=      5-min Rain = 0
KHO1 171039Z 16010KT 24/17 A3007 RMK A01 T02410165  RH  062%=      5-min Rain = 0
KHO1 171040Z 16010KT 24/17 A3007 RMK A01 T02410165  RH  063%=      5-min Rain = 0
KHO1 171041Z 16013KT 24/17 A3007 RMK A01 T02410165  RH  062%=      5-min Rain = 0
KHO1 171042Z 16013KT 24/17 A3007 RMK A01 T02410165  RH  062%=      5-min Rain = 0
KHO1 171043Z 16011KT 24/17 A3007 RMK A01 T02420165  RH  062%=      5-min Rain = 0
KHO1 171044Z 16010KT 24/17 A3007 RMK A01 T02410165  RH  062%=      5-min Rain = 0
KHO1 171045Z 16010KT 24/17 A3007 RMK A01 T02400165  RH  063%=      5-min Rain = 0
KHO1 171046Z 16011KT 24/17 A3007 RMK A01 T02400165  RH  063%=      5-min Rain = 0
KHO1 171047Z 16010KT 24/17 A3007 RMK A01 T02400165  RH  063%=      5-min Rain = 0
KHO1 171048Z 16010KT 24/17 A3007 RMK A01 T02400165  RH  063%=      5-min Rain = 0
KHO1 171049Z 16010KT 24/17 A3007 RMK A01 T02400165  RH  063%=      5-min Rain = 0
KHO1 171050Z 16009KT 24/17 A3007 RMK A01 T02400165  RH  063%=      5-min Rain = 0
KHO1 171051Z 16008KT 24/16 A3007 RMK A01 T02390164  RH  063%=      5-min Rain = 0
KHO1 171052Z 16009KT 24/16 A3007 RMK A01 T02390164  RH  063%=      5-min Rain = 0
KHO1 171053Z 16011KT 24/16 A3007 RMK A01 T02390164  RH  063%=      5-min Rain = 0
KHO1 171054Z 16010KT 24/16 A3007 RMK A01 T02390164  RH  063%=      5-min Rain = 0
KHO1 171055Z 16009KT 24/16 A3007 RMK A01 T02390164  RH  063%=      5-min Rain = 0
KHO1 171056Z 16008KT 24/16 A3007 RMK A01 T02390164  RH  063%=      5-min Rain = 0
KHO1 171057Z 16009KT 24/16 A3007 RMK A01 T02380164  RH  063%=      5-min Rain = 0
KHO1 171058Z 17012KT 24/16 A3007 RMK A01 T02380164  RH  063%=      5-min Rain = 0
KHO1 171059Z 17012KT 24/16 A3007 RMK A01 T02390164  RH  063%=      5-min Rain = 0
KHO1 171100Z 16011KT 24/16 A3007 RMK A01 T02390164  RH  063%=      5-min Rain = 0
KHO1 171101Z 17011KT 24/16 A3008 RMK A01 T02390164  RH  063%=      5-min Rain = 0
KHO1 171102Z 16010KT 24/16 A3008 RMK A01 T02390164  RH  063%=      5-min Rain = 0
KHO1 171103Z 16009KT 24/16 A3008 RMK A01 T02390164  RH  063%=      5-min Rain = 0
KHO1 171104Z 17011KT 24/16 A3008 RMK A01 T02390164  RH  063%=      5-min Rain = 0
KHO1 171105Z 16011KT 24/16 A3008 RMK A01 T02390164  RH  063%=      5-min Rain = 0
KHO1 171106Z 16010KT 24/16 A3008 RMK A01 T02380164  RH  063%=      5-min Rain = 0
KHO1 171107Z 17008KT 24/16 A3008 RMK A01 T02380163  RH  063%=      5-min Rain = 0
KHO1 171108Z 16009KT 24/16 A3008 RMK A01 T02370163  RH  063%=      5-min Rain = 0
KHO1 171109Z 16009KT 24/16 A3008 RMK A01 T02380163  RH  063%=      5-min Rain = 0
KHO1 171110Z 16011KT 24/16 A3008 RMK A01 T02380163  RH  063%=      5-min Rain = 0
KHO1 171111Z 16010KT 24/16 A3008 RMK A01 T02380163  RH  063%=      5-min Rain = 0
KHO1 171112Z 16010KT 24/16 A3008 RMK A01 T02370163  RH  063%=      5-min Rain = 0
KHO1 171113Z 16012KT 24/16 A3008 RMK A01 T02370163  RH  063%=      5-min Rain = 0
KHO1 171114Z 16011KT 24/16 A3008 RMK A01 T02380163  RH  063%=      5-min Rain = 0
KHO1 171115Z 16008KT 24/16 A3008 RMK A01 T02370162  RH  063%=      5-min Rain = 0
KHO1 171116Z 16010KT 24/16 A3008 RMK A01 T02370162  RH  063%=      5-min Rain = 0
KHO1 171117Z 16010KT 24/16 A3008 RMK A01 T02370162  RH  063%=      5-min Rain = 0
KHO1 171118Z 16011KT 24/16 A3008 RMK A01 T02370162  RH  063%=      5-min Rain = 0
KHO1 171119Z 15009KT 24/16 A3008 RMK A01 T02370162  RH  063%=      5-min Rain = 0
KHO1 171120Z 16011KT 24/16 A3008 RMK A01 T02360162  RH  063%=      5-min Rain = 0
KHO1 171121Z 16010KT 24/16 A3008 RMK A01 T02370162  RH  063%=      5-min Rain = 0
KHO1 171122Z 16009KT 24/16 A3008 RMK A01 T02360162  RH  063%=      5-min Rain = 0
KHO1 171123Z 16009KT 24/16 A3008 RMK A01 T02360162  RH  063%=      5-min Rain = 0
KHO1 171124Z 16010KT 24/16 A3008 RMK A01 T02360161  RH  063%=      5-min Rain = 0
KHO1 171125Z 16010KT 24/16 A3008 RMK A01 T02360161  RH  063%=      5-min Rain = 0
KHO1 171126Z 16010KT 24/16 A3008 RMK A01 T02360161  RH  063%=      5-min Rain = 0
KHO1 171127Z 16010KT 24/16 A3008 RMK A01 T02360161  RH  063%=      5-min Rain = 0
KHO1 171128Z 16009KT 24/16 A3008 RMK A01 T02360161  RH  063%=      5-min Rain = 0
KHO1 171129Z 16011KT 24/16 A3008 RMK A01 T02350161  RH  063%=      5-min Rain = 0
KHO1 171130Z 16010KT 24/16 A3008 RMK A01 T02360161  RH  063%=      5-min Rain = 0
KHO1 171131Z 16011KT 24/16 A3008 RMK A01 T02360161  RH  063%=      5-min Rain = 0
KHO1 171132Z 17010KT 24/16 A3008 RMK A01 T02360161  RH  063%=      5-min Rain = 0
KHO1 171133Z 16011KT 24/16 A3008 RMK A01 T02360160  RH  063%=      5-min Rain = 0
KHO1 171134Z 16011KT 24/16 A3008 RMK A01 T02360160  RH  063%=      5-min Rain = 0
KHO1 171135Z 17010KT 24/16 A3008 RMK A01 T02360161  RH  063%=      5-min Rain = 0
KHO1 171136Z 17010KT 24/16 A3008 RMK A01 T02360160  RH  063%=      5-min Rain = 0
KHO1 171137Z 16008KT 24/16 A3008 RMK A01 T02350160  RH  063%=      5-min Rain = 0
KHO1 171138Z 17011KT 24/16 A3008 RMK A01 T02350160  RH  063%=      5-min Rain = 0
KHO1 171139Z 16010KT 24/16 A3008 RMK A01 T02360160  RH  063%=      5-min Rain = 0
KHO1 171140Z 17008KT 24/16 A3008 RMK A01 T02350160  RH  063%=      5-min Rain = 0
KHO1 171141Z 17007KT 24/16 A3008 RMK A01 T02350160  RH  063%=      5-min Rain = 0
KHO1 171142Z 17006KT 23/16 A3008 RMK A01 T02340160  RH  063%=      5-min Rain = 0
KHO1 171143Z 18008KT 23/16 A3008 RMK A01 T02340160  RH  063%=      5-min Rain = 0
KHO1 171144Z 17008KT 23/16 A3008 RMK A01 T02330160  RH  063%=      5-min Rain = 0
KHO1 171145Z 17009KT 23/16 A3008 RMK A01 T02340160  RH  063%=      5-min Rain = 0
KHO1 171146Z 17007KT 23/16 A3008 RMK A01 T02330160  RH  063%=      5-min Rain = 0
KHO1 171147Z 17008KT 23/16 A3008 RMK A01 T02330160  RH  064%=      5-min Rain = 0
KHO1 171148Z 17009KT 23/16 A3008 RMK A01 T02330160  RH  064%=      5-min Rain = 0
KHO1 171149Z 17007KT 23/16 A3008 RMK A01 T02320160  RH  064%=      5-min Rain = 0
KHO1 171150Z 18008KT 23/16 A3008 RMK A01 T02320160  RH  064%=      5-min Rain = 0
KHO1 171151Z 17008KT 23/16 A3008 RMK A01 T02320160  RH  064%=      5-min Rain = 0
KHO1 171152Z 17007KT 23/16 A3008 RMK A01 T02320160  RH  064%=      5-min Rain = 0
KHO1 171153Z 17007KT 23/16 A3008 RMK A01 T02320160  RH  064%=      5-min Rain = 0
KHO1 171154Z 17008KT 23/16 A3008 RMK A01 T02310160  RH  064%=      5-min Rain = 0
KHO1 171155Z 17007KT 23/16 A3008 RMK A01 T02310160  RH  064%=      5-min Rain = 0
KHO1 171156Z 17008KT 23/16 A3008 RMK A01 T02310160  RH  064%=      5-min Rain = 0
KHO1 171157Z 17007KT 23/16 A3008 RMK A01 T02310160  RH  064%=      5-min Rain = 0
KHO1 171158Z 17007KT 23/16 A3008 RMK A01 T02310160  RH  065%=      5-min Rain = 0
KHO1 171159Z 17007KT 23/16 A3008 RMK A01 T02300160  RH  065%=      5-min Rain = 0
KHO1 171200Z 17007KT 23/16 A3008 RMK A01 T02300160  RH  065%=      5-min Rain = 0
KHO1 171201Z 17006KT 23/16 A3008 RMK A01 T02300160  RH  065%=      5-min Rain = 0
KHO1 171202Z 17007KT 23/16 A3008 RMK A01 T02290160  RH  065%=      5-min Rain = 0
KHO1 171203Z 17007KT 23/16 A3008 RMK A01 T02290160  RH  065%=      5-min Rain = 0
KHO1 171204Z 17008KT 23/16 A3008 RMK A01 T02290161  RH  065%=      5-min Rain = 0
KHO1 171205Z 17008KT 23/16 A3008 RMK A01 T02290161  RH  065%=      5-min Rain = 0
KHO1 171206Z 17007KT 23/16 A3008 RMK A01 T02290161  RH  065%=      5-min Rain = 0
KHO1 171207Z 17008KT 23/16 A3008 RMK A01 T02290161  RH  065%=      5-min Rain = 0
KHO1 171208Z 17007KT 23/16 A3008 RMK A01 T02290161  RH  065%=      5-min Rain = 0
KHO1 171209Z 17008KT 23/16 A3008 RMK A01 T02290161  RH  066%=      5-min Rain = 0
KHO1 171210Z 17008KT 23/16 A3008 RMK A01 T02290161  RH  066%=      5-min Rain = 0
KHO1 171211Z 17008KT 23/16 A3008 RMK A01 T02290161  RH  066%=      5-min Rain = 0
KHO1 171212Z 17009KT 23/16 A3008 RMK A01 T02290161  RH  065%=      5-min Rain = 0
KHO1 171213Z 17008KT 23/16 A3008 RMK A01 T02290161  RH  065%=      5-min Rain = 0
KHO1 171214Z 17008KT 23/16 A3008 RMK A01 T02290161  RH  065%=      5-min Rain = 0
KHO1 171215Z 17008KT 23/16 A3008 RMK A01 T02290161  RH  065%=      5-min Rain = 0
KHO1 171216Z 17009KT 23/16 A3008 RMK A01 T02290161  RH  065%=      5-min Rain = 0
KHO1 171217Z 16008KT 23/16 A3008 RMK A01 T02290161  RH  066%=      5-min Rain = 0
KHO1 171218Z 16009KT 23/16 A3008 RMK A01 T02290161  RH  066%=      5-min Rain = 0
KHO1 171219Z 16009KT 23/16 A3008 RMK A01 T02280161  RH  066%=      5-min Rain = 0
KHO1 171220Z 17010KT 23/16 A3008 RMK A01 T02290161  RH  066%=      5-min Rain = 0
KHO1 171221Z 17010KT 23/16 A3008 RMK A01 T02290161  RH  066%=      5-min Rain = 0
KHO1 171222Z 16011KT 23/16 A3008 RMK A01 T02290161  RH  065%=      5-min Rain = 0
KHO1 171223Z 16010KT 23/16 A3008 RMK A01 T02290161  RH  065%=      5-min Rain = 0
KHO1 171224Z 17010KT 23/16 A3008 RMK A01 T02290161  RH  065%=      5-min Rain = 0
KHO1 171225Z 16010KT 23/16 A3008 RMK A01 T02290161  RH  065%=      5-min Rain = 0
KHO1 171226Z 16010KT 23/16 A3008 RMK A01 T02290161  RH  065%=      5-min Rain = 0
KHO1 171227Z 17009KT 23/16 A3008 RMK A01 T02290161  RH  065%=      5-min Rain = 0
KHO1 171228Z 16009KT 23/16 A3009 RMK A01 T02290161  RH  065%=      5-min Rain = 0
KHO1 171229Z 17010KT 23/16 A3009 RMK A01 T02290161  RH  065%=      5-min Rain = 0
KHO1 171230Z 17009KT 23/16 A3009 RMK A01 T02290161  RH  065%=      5-min Rain = 0
KHO1 171231Z 16009KT 23/16 A3009 RMK A01 T02290161  RH  065%=      5-min Rain = 0
KHO1 171232Z 17009KT 23/16 A3009 RMK A01 T02290161  RH  065%=      5-min Rain = 0
KHO1 171233Z 17008KT 23/16 A3009 RMK A01 T02290161  RH  065%=      5-min Rain = 0
KHO1 171234Z 17008KT 23/16 A3009 RMK A01 T02290161  RH  065%=      5-min Rain = 0
KHO1 171235Z 17007KT 23/16 A3009 RMK A01 T02290161  RH  065%=      5-min Rain = 0
KHO1 171236Z 17010KT 23/16 A3009 RMK A01 T02300161  RH  065%=      5-min Rain = 0
KHO1 171237Z 17008KT 23/16 A3009 RMK A01 T02300161  RH  065%=      5-min Rain = 0
KHO1 171238Z 17007KT 23/16 A301 RMK A01 T02300161  RH  065%=      5-min Rain = 0
KHO1 171239Z 17007KT 23/16 A301 RMK A01 T02300161  RH  065%=      5-min Rain = 0
KHO1 171240Z 17007KT 23/16 A301 RMK A01 T02300162  RH  065%=      5-min Rain = 0
KHO1 171241Z 17008KT 23/16 A301 RMK A01 T02300161  RH  065%=      5-min Rain = 0
KHO1 171242Z 17007KT 23/16 A301 RMK A01 T02300162  RH  065%=      5-min Rain = 0
KHO1 171243Z 16007KT 23/16 A301 RMK A01 T02310162  RH  065%=      5-min Rain = 0
KHO1 171244Z 16008KT 23/16 A301 RMK A01 T02310162  RH  065%=      5-min Rain = 0
KHO1 171245Z 16007KT 23/16 A301 RMK A01 T02310162  RH  065%=      5-min Rain = 0
KHO1 171246Z 16008KT 23/16 A301 RMK A01 T02310162  RH  065%=      5-min Rain = 0
KHO1 171247Z 16009KT 23/16 A301 RMK A01 T02310162  RH  065%=      5-min Rain = 0
KHO1 171248Z 16009KT 23/16 A301 RMK A01 T02320162  RH  065%=      5-min Rain = 0
KHO1 171249Z 17010KT 23/16 A301 RMK A01 T02320161  RH  065%=      5-min Rain = 0
KHO1 171250Z 17008KT 23/16 A301 RMK A01 T02320162  RH  065%=      5-min Rain = 0
KHO1 171251Z 16010KT 23/16 A301 RMK A01 T02320162  RH  065%=      5-min Rain = 0
KHO1 171252Z 16011KT 23/16 A301 RMK A01 T02320161  RH  064%=      5-min Rain = 0
KHO1 171253Z 16009KT 23/16 A301 RMK A01 T02320161  RH  064%=      5-min Rain = 0
KHO1 171254Z 16009KT 23/16 A301 RMK A01 T02320162  RH  065%=      5-min Rain = 0
KHO1 171255Z 17010KT 23/16 A301 RMK A01 T02330161  RH  064%=      5-min Rain = 0
KHO1 171256Z 17009KT 23/16 A301 RMK A01 T02330161  RH  064%=      5-min Rain = 0
KHO1 171257Z 17008KT 23/16 A301 RMK A01 T02330162  RH  064%=      5-min Rain = 0
KHO1 171258Z 17010KT 23/16 A301 RMK A01 T02330162  RH  064%=      5-min Rain = 0
KHO1 171259Z 17010KT 23/16 A301 RMK A01 T02340162  RH  064%=      5-min Rain = 0
KHO1 171300Z 17010KT 23/16 A301 RMK A01 T02340162  RH  064%=      5-min Rain = 0
KHO1 171301Z 17012KT 23/16 A301 RMK A01 T02340161  RH  064%=      5-min Rain = 0
KHO1 171302Z 17011KT 23/16 A301 RMK A01 T02340162  RH  064%=      5-min Rain = 0
KHO1 171303Z 17012KT 24/16 A301 RMK A01 T02350162  RH  063%=      5-min Rain = 0
KHO1 171304Z 17011KT 24/16 A301 RMK A01 T02350162  RH  063%=      5-min Rain = 0
KHO1 171305Z 17008KT 24/16 A301 RMK A01 T02350162  RH  063%=      5-min Rain = 0
KHO1 171306Z 17012KT 24/16 A301 RMK A01 T02360162  RH  063%=      5-min Rain = 0
KHO1 171307Z 17010KT 24/16 A301 RMK A01 T02360162  RH  063%=      5-min Rain = 0
KHO1 171308Z 17009KT 24/16 A301 RMK A01 T02360162  RH  063%=      5-min Rain = 0
KHO1 171309Z 17012KT 24/16 A301 RMK A01 T02370162  RH  063%=      5-min Rain = 0
KHO1 171310Z 17011KT 24/16 A301 RMK A01 T02370162  RH  063%=      5-min Rain = 0
KHO1 171311Z 17009KT 24/16 A301 RMK A01 T02370162  RH  063%=      5-min Rain = 0
KHO1 171312Z 17013KT 24/16 A301 RMK A01 T02370162  RH  063%=      5-min Rain = 0
KHO1 171313Z 17012KT 24/16 A301 RMK A01 T02370162  RH  063%=      5-min Rain = 0
KHO1 171314Z 17012KT 24/16 A301 RMK A01 T02370162  RH  063%=      5-min Rain = 0
KHO1 171315Z 17011KT 24/16 A301 RMK A01 T02380162  RH  063%=      5-min Rain = 0
KHO1 171316Z 17012KT 24/16 A301 RMK A01 T02380162  RH  062%=      5-min Rain = 0
KHO1 171317Z 16012KT 24/16 A301 RMK A01 T02380162  RH  062%=      5-min Rain = 0
KHO1 171318Z 17011KT 24/16 A301 RMK A01 T02390162  RH  062%=      5-min Rain = 0
KHO1 171319Z 17014KT 24/16 A301 RMK A01 T02390162  RH  062%=      5-min Rain = 0
KHO1 171320Z 17014KT 24/16 A301 RMK A01 T02390162  RH  062%=      5-min Rain = 0
KHO1 171321Z 17011KT 24/16 A301 RMK A01 T02390162  RH  062%=      5-min Rain = 0
KHO1 171322Z 17011KT 24/16 A301 RMK A01 T02400162  RH  062%=      5-min Rain = 0
KHO1 171323Z 17013KT 24/16 A301 RMK A01 T02400162  RH  062%=      5-min Rain = 0
KHO1 171324Z 17012KT 24/16 A301 RMK A01 T02400162  RH  062%=      5-min Rain = 0
KHO1 171325Z 17013KT 24/16 A301 RMK A01 T02400162  RH  062%=      5-min Rain = 0
KHO1 171326Z 17011KT 24/16 A301 RMK A01 T02400162  RH  062%=      5-min Rain = 0
KHO1 171327Z 17014KT 24/16 A301 RMK A01 T02410162  RH  062%=      5-min Rain = 0
KHO1 171328Z 17013KT 24/16 A301 RMK A01 T02410162  RH  062%=      5-min Rain = 0
KHO1 171329Z 17012KT 24/16 A301 RMK A01 T02410163  RH  062%=      5-min Rain = 0
KHO1 171330Z 18012KT 24/16 A301 RMK A01 T02420163  RH  061%=      5-min Rain = 0
KHO1 171331Z 17011KT 24/16 A301 RMK A01 T02420163  RH  061%=      5-min Rain = 0
KHO1 171332Z 17012KT 24/16 A301 RMK A01 T02430163  RH  061%=      5-min Rain = 0
KHO1 171333Z 17011G16KT 24/16 A301 RMK A01 T02430163  RH  061%=      5-min Rain = 0
KHO1 171334Z 17013KT 24/16 A301 RMK A01 T02430163  RH  061%=      5-min Rain = 0
KHO1 171335Z 17014KT 24/16 A301 RMK A01 T02430163  RH  061%=      5-min Rain = 0
KHO1 171336Z 17010KT 24/16 A301 RMK A01 T02440163  RH  061%=      5-min Rain = 0
KHO1 171337Z 17012KT 24/16 A301 RMK A01 T02440163  RH  061%=      5-min Rain = 0
KHO1 171338Z 16014KT 24/16 A301 RMK A01 T02440163  RH  060%=      5-min Rain = 0
KHO1 171339Z 16014KT 24/16 A301 RMK A01 T02440162  RH  060%=      5-min Rain = 0
KHO1 171340Z 17014KT 24/16 A3011 RMK A01 T02440163  RH  061%=      5-min Rain = 0
KHO1 171341Z 17011KT 24/16 A3011 RMK A01 T02440163  RH  061%=      5-min Rain = 0
KHO1 171342Z 17014KT 25/16 A3011 RMK A01 T02450163  RH  060%=      5-min Rain = 0
KHO1 171343Z 17014KT 25/16 A3011 RMK A01 T02450163  RH  060%=      5-min Rain = 0
KHO1 171344Z 17014KT 25/16 A3011 RMK A01 T02450163  RH  060%=      5-min Rain = 0
KHO1 171345Z 17014KT 25/16 A3011 RMK A01 T02450163  RH  060%=      5-min Rain = 0
KHO1 171346Z 17014KT 25/16 A3011 RMK A01 T02450163  RH  060%=      5-min Rain = 0
KHO1 171347Z 17016KT 25/16 A3011 RMK A01 T02460162  RH  060%=      5-min Rain = 0
KHO1 171348Z 17014KT 25/16 A3011 RMK A01 T02460163  RH  060%=      5-min Rain = 0
KHO1 171349Z 17014KT 25/16 A301 RMK A01 T02460162  RH  060%=      5-min Rain = 0
KHO1 171350Z 17013KT 25/16 A301 RMK A01 T02460163  RH  060%=      5-min Rain = 0
KHO1 171351Z 17013KT 25/16 A301 RMK A01 T02470163  RH  060%=      5-min Rain = 0
KHO1 171352Z 16012KT 25/16 A301 RMK A01 T02490164  RH  059%=      5-min Rain = 0
KHO1 171353Z 16013G18KT 25/16 A301 RMK A01 T02480163  RH  059%=      5-min Rain = 0
KHO1 171354Z 16014KT 25/16 A301 RMK A01 T02480163  RH  059%=      5-min Rain = 0
KHO1 171355Z 16016KT 25/16 A301 RMK A01 T02480163  RH  059%=      5-min Rain = 0
KHO1 171356Z 16017KT 25/16 A301 RMK A01 T02480162  RH  059%=      5-min Rain = 0
KHO1 171357Z 17013KT 25/16 A301 RMK A01 T02480163  RH  059%=      5-min Rain = 0
KHO1 171358Z 16014KT 25/16 A301 RMK A01 T02490164  RH  059%=      5-min Rain = 0
KHO1 171359Z 17015KT 25/16 A301 RMK A01 T02490162  RH  058%=      5-min Rain = 0
KHO1 171400Z 16013KT 25/16 A301 RMK A01 T02490163  RH  059%=      5-min Rain = 0
KHO1 171401Z 17016KT 25/16 A301 RMK A01 T02490162  RH  059%=      5-min Rain = 0
KHO1 171402Z 17013KT 25/16 A301 RMK A01 T02490163  RH  059%=      5-min Rain = 0
KHO1 171403Z 17013KT 25/16 A301 RMK A01 T02490163  RH  059%=      5-min Rain = 0
KHO1 171404Z 17015KT 25/16 A301 RMK A01 T02500163  RH  058%=      5-min Rain = 0
KHO1 171405Z 17016KT 25/16 A301 RMK A01 T02490162  RH  058%=      5-min Rain = 0
KHO1 171406Z 17013KT 25/16 A301 RMK A01 T02500164  RH  059%=      5-min Rain = 0
KHO1 171407Z 17011KT 25/17 A301 RMK A01 T02520165  RH  058%=      5-min Rain = 0
KHO1 171408Z 16011KT 25/17 A301 RMK A01 T02530165  RH  058%=      5-min Rain = 0
KHO1 171409Z 16013KT 26/17 A301 RMK A01 T02550165  RH  058%=      5-min Rain = 0
KHO1 171410Z 16014KT 26/17 A301 RMK A01 T02550165  RH  057%=      5-min Rain = 0
KHO1 171411Z 16016KT 25/16 A301 RMK A01 T02540163  RH  057%=      5-min Rain = 0
KHO1 171412Z 17016KT 25/16 A301 RMK A01 T02530163  RH  058%=      5-min Rain = 0
KHO1 171413Z 17014KT 25/16 A301 RMK A01 T02530163  RH  057%=      5-min Rain = 0
KHO1 171414Z 17016KT 25/16 A301 RMK A01 T02530162  RH  057%=      5-min Rain = 0
KHO1 171415Z 17017KT 25/16 A301 RMK A01 T02530163  RH  057%=      5-min Rain = 0
KHO1 171416Z 17015KT 25/16 A301 RMK A01 T02530162  RH  057%=      5-min Rain = 0
KHO1 171417Z 18013KT 25/16 A301 RMK A01 T02540163  RH  057%=      5-min Rain = 0
KHO1 171418Z 17015KT 25/16 A301 RMK A01 T02540163  RH  057%=      5-min Rain = 0
KHO1 171419Z 17013KT 26/16 A301 RMK A01 T02550164  RH  057%=      5-min Rain = 0
KHO1 171420Z 16014KT 26/16 A301 RMK A01 T02560164  RH  057%=      5-min Rain = 0
KHO1 171421Z 16015KT 26/16 A301 RMK A01 T02570164  RH  056%=      5-min Rain = 0
KHO1 171422Z 16014KT 26/16 A301 RMK A01 T02580164  RH  056%=      5-min Rain = 0
KHO1 171423Z 16016KT 26/16 A301 RMK A01 T02560163  RH  056%=      5-min Rain = 0
KHO1 171424Z 16012KT 26/16 A301 RMK A01 T02560164  RH  057%=      5-min Rain = 0
KHO1 171425Z 16014KT 26/16 A301 RMK A01 T02570164  RH  056%=      5-min Rain = 0
KHO1 171426Z 16016KT 26/16 A301 RMK A01 T02580163  RH  056%=      5-min Rain = 0
KHO1 171427Z 17015KT 26/16 A301 RMK A01 T02560163  RH  056%=      5-min Rain = 0
KHO1 171428Z 16013KT 26/16 A301 RMK A01 T02570164  RH  057%=      5-min Rain = 0
KHO1 171429Z 16016KT 26/16 A301 RMK A01 T02590164  RH  056%=      5-min Rain = 0
KHO1 171430Z 16016KT 26/16 A301 RMK A01 T02580163  RH  056%=      5-min Rain = 0
KHO1 171431Z 16016KT 26/16 A301 RMK A01 T02560163  RH  056%=      5-min Rain = 0
KHO1 171432Z 17015KT 26/16 A301 RMK A01 T02560164  RH  057%=      5-min Rain = 0
KHO1 171433Z 16016KT 26/16 A301 RMK A01 T02570164  RH  056%=      5-min Rain = 0
KHO1 171434Z 16016KT 26/16 A301 RMK A01 T02580162  RH  055%=      5-min Rain = 0
KHO1 171435Z 17013KT 26/16 A301 RMK A01 T02590163  RH  055%=      5-min Rain = 0
KHO1 171436Z 18014KT 26/16 A301 RMK A01 T02600163  RH  055%=      5-min Rain = 0
KHO1 171437Z 17014KT 26/16 A301 RMK A01 T02600163  RH  055%=      5-min Rain = 0
KHO1 171438Z 16016KT 26/16 A301 RMK A01 T02600163  RH  055%=      5-min Rain = 0
KHO1 171439Z 16016KT 26/16 A301 RMK A01 T02600161  RH  054%=      5-min Rain = 0
KHO1 171440Z 16017KT 26/16 A301 RMK A01 T02590160  RH  054%=      5-min Rain = 0
KHO1 171441Z 17015KT 26/16 A301 RMK A01 T02590161  RH  055%=      5-min Rain = 0
KHO1 171442Z 17017KT 26/16 A301 RMK A01 T02590161  RH  055%=      5-min Rain = 0
KHO1 171443Z 17014KT 26/16 A301 RMK A01 T02600162  RH  055%=      5-min Rain = 0
KHO1 171444Z 17013KT 26/16 A3011 RMK A01 T02630163  RH  054%=      5-min Rain = 0
KHO1 171445Z 17013KT 27/16 A3011 RMK A01 T02650162  RH  053%=      5-min Rain = 0
KHO1 171446Z 16014KT 26/16 A3011 RMK A01 T02620159  RH  053%=      5-min Rain = 0
KHO1 171447Z 17012KT 26/16 A3011 RMK A01 T02630161  RH  054%=      5-min Rain = 0
KHO1 171448Z 17016KT 27/16 A3011 RMK A01 T02650161  RH  053%=      5-min Rain = 0
KHO1 171449Z 17014KT 26/16 A3011 RMK A01 T02640162  RH  053%=      5-min Rain = 0
KHO1 171450Z 17014KT 27/16 A3011 RMK A01 T02650161  RH  053%=      5-min Rain = 0
KHO1 171451Z 17014KT 27/16 A3011 RMK A01 T02650161  RH  053%=      5-min Rain = 0
KHO1 171452Z 16012G18KT 27/16 A3011 RMK A01 T02660163  RH  053%=      5-min Rain = 0
KHO1 171453Z 17015KT 27/16 A3011 RMK A01 T02670160  RH  052%=      5-min Rain = 0
KHO1 171454Z 17014KT 27/16 A301 RMK A01 T02670161  RH  052%=      5-min Rain = 0
KHO1 171455Z 17014KT 27/16 A3011 RMK A01 T02670161  RH  052%=      5-min Rain = 0
KHO1 171456Z 17014KT 27/16 A3011 RMK A01 T02680161  RH  052%=      5-min Rain = 0
KHO1 171457Z 18013KT 27/16 A3011 RMK A01 T02680161  RH  052%=      5-min Rain = 0
KHO1 171458Z 18014KT 27/16 A3011 RMK A01 T02680161  RH  052%=      5-min Rain = 0
KHO1 171459Z 18011KT 27/16 A3011 RMK A01 T02690163  RH  052%=      5-min Rain = 0
KHO1 171500Z 18010KT 27/16 A3011 RMK A01 T02690163  RH  052%=      5-min Rain = 0
KHO1 171501Z 17010KT 27/17 A3011 RMK A01 T02720165  RH  052%=      5-min Rain = 0
KHO1 171502Z 16013KT 27/16 A3011 RMK A01 T02720162  RH  051%=      5-min Rain = 0
KHO1 171503Z 17012KT 27/16 A3011 RMK A01 T02710162  RH  051%=      5-min Rain = 0
KHO1 171504Z 16013KT 27/16 A3011 RMK A01 T02700161  RH  051%=      5-min Rain = 0
KHO1 171505Z 17012KT 27/16 A3011 RMK A01 T02680161  RH  052%=      5-min Rain = 0
KHO1 171506Z 18012KT 27/16 A3011 RMK A01 T02700161  RH  051%=      5-min Rain = 0
KHO1 171507Z 18015KT 27/16 A3011 RMK A01 T02710161  RH  051%=      5-min Rain = 0
KHO1 171508Z 19014KT 27/16 A3011 RMK A01 T02700162  RH  052%=      5-min Rain = 0
KHO1 171509Z 18012KT 27/16 A3011 RMK A01 T02690161  RH  052%=      5-min Rain = 0
KHO1 171510Z 17012KT 27/16 A3011 RMK A01 T02710162  RH  051%=      5-min Rain = 0
KHO1 171511Z 17012KT 27/16 A3011 RMK A01 T02710162  RH  051%=      5-min Rain = 0
KHO1 171512Z 18013KT 27/16 A3011 RMK A01 T02710160  RH  051%=      5-min Rain = 0
KHO1 171513Z 19014KT 27/16 A3011 RMK A01 T02720161  RH  051%=      5-min Rain = 0
KHO1 171514Z 18014KT 27/16 A3011 RMK A01 T02710160  RH  051%=      5-min Rain = 0
KHO1 171515Z 18014KT 27/16 A3011 RMK A01 T02700161  RH  051%=      5-min Rain = 0
KHO1 171516Z 18013KT 27/16 A3011 RMK A01 T02710163  RH  051%=      5-min Rain = 0
KHO1 171517Z 18011KT 27/16 A3011 RMK A01 T02730163  RH  051%=      5-min Rain = 0
KHO1 171518Z 17012KT 27/16 A3011 RMK A01 T02730162  RH  051%=      5-min Rain = 0
KHO1 171519Z 16012KT 27/16 A3011 RMK A01 T02700161  RH  051%=      5-min Rain = 0
KHO1 171520Z 17015KT 27/16 A3011 RMK A01 T02710162  RH  051%=      5-min Rain = 0
KHO1 171521Z 18011KT 27/16 A3011 RMK A01 T02720162  RH  051%=      5-min Rain = 0
KHO1 171522Z 17010KT 27/16 A3011 RMK A01 T02740163  RH  051%=      5-min Rain = 0
KHO1 171523Z 16011KT 28/16 A3011 RMK A01 T02760162  RH  050%=      5-min Rain = 0
KHO1 171524Z 16014KT 28/16 A3011 RMK A01 T02790161  RH  049%=      5-min Rain = 0
KHO1 171525Z 16012KT 28/16 A3011 RMK A01 T02780160  RH  049%=      5-min Rain = 0
KHO1 171526Z 17014KT 28/16 A3011 RMK A01 T02770159  RH  049%=      5-min Rain = 0
KHO1 171527Z 16012KT 28/16 A3011 RMK A01 T02750161  RH  050%=      5-min Rain = 0
KHO1 171528Z 16014KT 28/16 A3011 RMK A01 T02760162  RH  050%=      5-min Rain = 0
KHO1 171529Z 16013KT 28/16 A3011 RMK A01 T02760161  RH  049%=      5-min Rain = 0
KHO1 171530Z 16012KT 28/16 A3011 RMK A01 T02780162  RH  049%=      5-min Rain = 0
KHO1 171531Z 16011KT 28/16 A3011 RMK A01 T02780162  RH  049%=      5-min Rain = 0
KHO1 171532Z 17012KT 28/16 A3011 RMK A01 T02790163  RH  049%=      5-min Rain = 0
KHO1 171533Z 17012KT 28/16 A3011 RMK A01 T02800162  RH  049%=      5-min Rain = 0
KHO1 171534Z 17014KT 28/16 A3011 RMK A01 T02780161  RH  049%=      5-min Rain = 0
KHO1 171535Z 17014KT 28/16 A3011 RMK A01 T02770161  RH  049%=      5-min Rain = 0
KHO1 171536Z 18014KT 28/16 A3011 RMK A01 T02760160  RH  049%=      5-min Rain = 0
KHO1 171537Z 18012KT 28/16 A3011 RMK A01 T02760161  RH  050%=      5-min Rain = 0
KHO1 171538Z 19013KT 28/16 A3011 RMK A01 T02780161  RH  049%=      5-min Rain = 0
KHO1 171539Z 18012KT 28/16 A3011 RMK A01 T02800162  RH  049%=      5-min Rain = 0
KHO1 171540Z 18011KT 28/16 A3011 RMK A01 T02810161  RH  048%=      5-min Rain = 0
KHO1 171541Z 18013KT 28/16 A3011 RMK A01 T02800161  RH  048%=      5-min Rain = 0
KHO1 171542Z 17015KT 28/16 A3011 RMK A01 T02800161  RH  048%=      5-min Rain = 0
KHO1 171543Z 18012KT 28/16 A3011 RMK A01 T02800162  RH  049%=      5-min Rain = 0
KHO1 171544Z 17012KT 28/16 A3011 RMK A01 T02800162  RH  049%=      5-min Rain = 0
KHO1 171545Z 17012KT 28/16 A3011 RMK A01 T02830162  RH  048%=      5-min Rain = 0
KHO1 171546Z 16012KT 28/16 A301 RMK A01 T02830161  RH  048%=      5-min Rain = 0
KHO1 171547Z 16011KT 29/16 A3011 RMK A01 T02850162  RH  047%=      5-min Rain = 0
KHO1 171548Z 16012KT 29/16 A3011 RMK A01 T02870162  RH  047%=      5-min Rain = 0
KHO1 171549Z 16014KT 29/16 A3011 RMK A01 T02860162  RH  047%=      5-min Rain = 0
KHO1 171550Z 16015KT 29/16 A3011 RMK A01 T02850162  RH  047%=      5-min Rain = 0
KHO1 171551Z 16013KT 28/16 A3011 RMK A01 T02820160  RH  047%=      5-min Rain = 0
KHO1 171552Z 17011KT 28/16 A3011 RMK A01 T02810161  RH  048%=      5-min Rain = 0
KHO1 171553Z 16011KT 28/16 A3011 RMK A01 T02840162  RH  048%=      5-min Rain = 0
KHO1 171554Z 16015KT 29/16 A3011 RMK A01 T02850159  RH  046%=      5-min Rain = 0
KHO1 171555Z 16013KT 28/16 A3011 RMK A01 T02840159  RH  047%=      5-min Rain = 0
KHO1 171556Z 17012KT 29/16 A3011 RMK A01 T02870159  RH  046%=      5-min Rain = 0
KHO1 171557Z 17012KT 29/16 A3011 RMK A01 T02870157  RH  045%=      5-min Rain = 0
KHO1 171558Z 16015KT 29/16 A3011 RMK A01 T02870157  RH  045%=      5-min Rain = 0
KHO1 171559Z 17013KT 28/16 A3011 RMK A01 T02840156  RH  046%=      5-min Rain = 0
KHO1 171600Z 17014KT 28/16 A3011 RMK A01 T02830156  RH  046%=      5-min Rain = 0
KHO1 171601Z 16013KT 28/16 A3011 RMK A01 T02820156  RH  046%=      5-min Rain = 0
KHO1 171602Z 15012KT 28/16 A3011 RMK A01 T02830158  RH  047%=      5-min Rain = 0
KHO1 171603Z 15012KT 29/16 A3011 RMK A01 T02860159  RH  046%=      5-min Rain = 0
KHO1 171604Z 15013KT 29/16 A3011 RMK A01 T02890159  RH  045%=      5-min Rain = 0
KHO1 171605Z 16013KT 29/16 A3011 RMK A01 T02880158  RH  045%=      5-min Rain = 0
KHO1 171606Z 16010KT 29/16 A3011 RMK A01 T02880160  RH  046%=      5-min Rain = 0
KHO1 171607Z 16011KT 29/16 A3011 RMK A01 T02900158  RH  045%=      5-min Rain = 0
KHO1 171608Z 18009KT 29/16 A3011 RMK A01 T02900158  RH  045%=      5-min Rain = 0
KHO1 171609Z 19010KT 29/16 A3011 RMK A01 T02930158  RH  044%=      5-min Rain = 0
KHO1 171610Z 18012KT 29/15 A3011 RMK A01 T02940152  RH  042%=      5-min Rain = 0
KHO1 171611Z 18010KT 29/15 A3011 RMK A01 T02900154  RH  044%=      5-min Rain = 0
KHO1 171612Z 17009KT 29/16 A3011 RMK A01 T02920159  RH  045%=      5-min Rain = 0
KHO1 171613Z 17011KT 29/16 A3011 RMK A01 T02930159  RH  044%=      5-min Rain = 0
KHO1 171614Z 17008KT 29/16 A3011 RMK A01 T02910157  RH  044%=      5-min Rain = 0
KHO1 171615Z 16010KT 29/16 A3011 RMK A01 T02940159  RH  044%=      5-min Rain = 0
KHO1 171616Z 17009KT 30/16 A3011 RMK A01 T02970160  RH  043%=      5-min Rain = 0
KHO1 171617Z 16009KT 30/16 A3011 RMK A01 T03010158  RH  042%=      5-min Rain = 0
KHO1 171618Z 16011KT 30/16 A3011 RMK A01 T03020157  RH  042%=      5-min Rain = 0
KHO1 171619Z 17011KT 30/15 A3011 RMK A01 T03000154  RH  041%=      5-min Rain = 0
KHO1 171620Z 17011KT 30/16 A3011 RMK A01 T02970155  RH  042%=      5-min Rain = 0
KHO1 171621Z 16008KT 29/16 A3011 RMK A01 T02940156  RH  043%=      5-min Rain = 0
KHO1 171622Z 17010KT 30/16 A3011 RMK A01 T02980160  RH  043%=      5-min Rain = 0
KHO1 171623Z 16012KT 30/16 A301 RMK A01 T03000155  RH  041%=      5-min Rain = 0
KHO1 171624Z 16010KT 30/16 A3011 RMK A01 T03010159  RH  042%=      5-min Rain = 0
KHO1 171625Z 16009KT 30/16 A301 RMK A01 T03010157  RH  042%=      5-min Rain = 0
KHO1 171626Z 16013KT 30/16 A301 RMK A01 T03020157  RH  041%=      5-min Rain = 0
KHO1 171627Z 17011KT 30/15 A301 RMK A01 T02980154  RH  042%=      5-min Rain = 0
KHO1 171628Z 17016KT 30/16 A301 RMK A01 T02970155  RH  042%=      5-min Rain = 0
KHO1 171629Z 17014KT 30/16 A301 RMK A01 T02970155  RH  042%=      5-min Rain = 0
KHO1 171630Z 17013KT 30/15 A3011 RMK A01 T02960152  RH  042%=      5-min Rain = 0
KHO1 171631Z 16010KT 29/15 A301 RMK A01 T02930153  RH  043%=      5-min Rain = 0
KHO1 171632Z 15009KT 30/16 A301 RMK A01 T02960155  RH  042%=      5-min Rain = 0
KHO1 171633Z 18009KT 30/16 A301 RMK A01 T02990156  RH  042%=      5-min Rain = 0
KHO1 171634Z 18013KT 30/15 A3011 RMK A01 T03000152  RH  041%=      5-min Rain = 0
KHO1 171635Z 18010KT 30/15 A3011 RMK A01 T03000152  RH  041%=      5-min Rain = 0
KHO1 171636Z 17010KT 30/15 A3011 RMK A01 T02980152  RH  041%=      5-min Rain = 0
KHO1 171637Z 17008KT 30/15 A3011 RMK A01 T02980152  RH  041%=      5-min Rain = 0
KHO1 171638Z 19007KT 30/16 A3011 RMK A01 T03010156  RH  041%=      5-min Rain = 0
KHO1 171639Z 20010KT 30/15 A3011 RMK A01 T03030151  RH  040%=      5-min Rain = 0
KHO1 171640Z 19009KT 30/15 A3011 RMK A01 T03010149  RH  040%=      5-min Rain = 0
KHO1 171641Z 17008KT 30/15 A3011 RMK A01 T02990152  RH  041%=      5-min Rain = 0
KHO1 171642Z 16011KT 30/15 A301 RMK A01 T02990154  RH  041%=      5-min Rain = 0
KHO1 171643Z 17011KT 30/15 A301 RMK A01 T03010151  RH  040%=      5-min Rain = 0
KHO1 171644Z 17010KT 30/15 A301 RMK A01 T02990149  RH  040%=      5-min Rain = 0
KHO1 171645Z 18010KT 30/15 A3011 RMK A01 T03010150  RH  040%=      5-min Rain = 0
KHO1 171646Z 18009KT 30/15 A301 RMK A01 T02990152  RH  041%=      5-min Rain = 0
KHO1 171647Z 17009KT 30/15 A301 RMK A01 T03020152  RH  040%=      5-min Rain = 0
KHO1 171648Z 18011KT 30/15 A301 RMK A01 T03020151  RH  040%=      5-min Rain = 0
KHO1 171649Z 17012KT 30/15 A3011 RMK A01 T03020148  RH  039%=      5-min Rain = 0
KHO1 171650Z 17010KT 30/15 A301 RMK A01 T03020150  RH  040%=      5-min Rain = 0
KHO1 171651Z 18008KT 30/15 A3011 RMK A01 T03030147  RH  039%=      5-min Rain = 0
KHO1 171652Z 17010KT 30/15 A301 RMK A01 T03040150  RH  039%=      5-min Rain = 0
KHO1 171653Z 17009KT 30/15 A301 RMK A01 T03040148  RH  039%=      5-min Rain = 0
KHO1 171654Z 18006KT 30/15 A301 RMK A01 T03030151  RH  040%=      5-min Rain = 0
KHO1 171655Z 19010KT 30/15 A301 RMK A01 T03040151  RH  040%=      5-min Rain = 0
KHO1 171656Z 17008KT 30/15 A301 RMK A01 T03040152  RH  040%=      5-min Rain = 0
KHO1 171657Z 16012KT 31/15 A301 RMK A01 T03090151  RH  039%=      5-min Rain = 0
KHO1 171658Z 16011KT 31/15 A301 RMK A01 T03100149  RH  038%=      5-min Rain = 0
KHO1 171659Z 17009KT 31/15 A301 RMK A01 T03070148  RH  038%=      5-min Rain = 0
KHO1 171700Z 16010KT 31/15 A301 RMK A01 T03090149  RH  038%=      5-min Rain = 0
KHO1 171701Z 15009KT 31/15 A301 RMK A01 T03070146  RH  038%=      5-min Rain = 0
KHO1 171702Z 17008KT 31/15 A301 RMK A01 T03070150  RH  039%=      5-min Rain = 0
KHO1 171703Z 17011KT 31/15 A301 RMK A01 T03100147  RH  037%=      5-min Rain = 0
KHO1 171704Z 18011KT 31/14 A301 RMK A01 T03080143  RH  037%=      5-min Rain = 0
KHO1 171705Z 18009KT 31/15 A301 RMK A01 T03060145  RH  037%=      5-min Rain = 0
KHO1 171706Z 18009KT 31/14 A301 RMK A01 T03080144  RH  037%=      5-min Rain = 0
KHO1 171707Z 18009G14KT 31/14 A301 RMK A01 T03090144  RH  037%=      5-min Rain = 0
KHO1 171708Z 18010KT 31/14 A301 RMK A01 T03080144  RH  037%=      5-min Rain = 0
KHO1 171709Z 19009KT 31/14 A301 RMK A01 T03080142  RH  036%=      5-min Rain = 0
KHO1 171710Z 17011KT 31/15 A301 RMK A01 T03090145  RH  037%=      5-min Rain = 0
KHO1 171711Z 18009KT 31/15 A301 RMK A01 T03100147  RH  037%=      5-min Rain = 0
KHO1 171712Z 18010KT 31/14 A301 RMK A01 T03110144  RH  036%=      5-min Rain = 0
KHO1 171713Z 18010KT 31/14 A301 RMK A01 T03120143  RH  036%=      5-min Rain = 0
KHO1 171714Z 19010KT 31/14 A301 RMK A01 T03100139  RH  035%=      5-min Rain = 0
KHO1 171715Z 20012KT 31/14 A301 RMK A01 T03100140  RH  035%=      5-min Rain = 0
KHO1 171716Z 20010KT 31/14 A301 RMK A01 T03090141  RH  036%=      5-min Rain = 0
KHO1 171717Z 20010KT 31/14 A301 RMK A01 T03090142  RH  036%=      5-min Rain = 0
KHO1 171718Z 19012KT 31/14 A301 RMK A01 T03100144  RH  036%=      5-min Rain = 0
KHO1 171719Z 16012KT 31/15 A301 RMK A01 T03120146  RH  036%=      5-min Rain = 0
KHO1 171720Z 18010KT 31/14 A301 RMK A01 T03100142  RH  036%=      5-min Rain = 0
KHO1 171721Z 18010KT 31/15 A301 RMK A01 T03080145  RH  037%=      5-min Rain = 0
KHO1 171722Z 16011KT 31/14 A301 RMK A01 T03140144  RH  036%=      5-min Rain = 0
KHO1 171723Z 15011KT 31/14 A301 RMK A01 T03140141  RH  035%=      5-min Rain = 0
KHO1 171724Z 16010KT 32/14 A301 RMK A01 T03160141  RH  034%=      5-min Rain = 0
KHO1 171725Z 17007KT 32/14 A301 RMK A01 T03160139  RH  034%=      5-min Rain = 0
KHO1 171726Z 19008G14KT 32/14 A301 RMK A01 T03150142  RH  035%=      5-min Rain = 0
KHO1 171727Z 18013KT 32/14 A301 RMK A01 T03160139  RH  034%=      5-min Rain = 0
KHO1 171728Z 18013KT 31/14 A301 RMK A01 T03140138  RH  034%=      5-min Rain = 0
KHO1 171729Z 18011KT 31/14 A301 RMK A01 T03130137  RH  034%=      5-min Rain = 0
KHO1 171730Z 21009KT 31/14 A301 RMK A01 T03120140  RH  035%=      5-min Rain = 0
KHO1 171731Z 19011KT 31/14 A301 RMK A01 T03130143  RH  036%=      5-min Rain = 0
KHO1 171732Z 19008KT 31/14 A301 RMK A01 T03120144  RH  036%=      5-min Rain = 0
KHO1 171733Z 20006KT 31/15 A301 RMK A01 T03130147  RH  036%=      5-min Rain = 0
KHO1 171734Z 16010KT 32/14 A301 RMK A01 T03170142  RH  035%=      5-min Rain = 0
KHO1 171735Z 14011KT 32/14 A301 RMK A01 T03200139  RH  033%=      5-min Rain = 0
KHO1 171736Z 15009KT 32/14 A301 RMK A01 T03210138  RH  033%=      5-min Rain = 0
KHO1 171737Z 15014KT 32/13 A301 RMK A01 T03220132  RH  032%=      5-min Rain = 0
KHO1 171738Z 16011KT 32/13 A301 RMK A01 T03200128  RH  031%=      5-min Rain = 0
KHO1 171739Z 15009KT 32/13 A301 RMK A01 T03160134  RH  033%=      5-min Rain = 0
KHO1 171740Z 16010G15KT 32/14 A301 RMK A01 T03180138  RH  034%=      5-min Rain = 0
KHO1 171741Z 17014KT 32/14 A301 RMK A01 T03170137  RH  034%=      5-min Rain = 0
KHO1 171742Z 18010KT 32/13 A301 RMK A01 T03150132  RH  033%=      5-min Rain = 0
KHO1 171743Z 18009KT 32/13 A301 RMK A01 T03180133  RH  032%=      5-min Rain = 0
KHO1 171744Z 17009KT 32/13 A301 RMK A01 T03180132  RH  032%=      5-min Rain = 0
KHO1 171745Z 18010KT 32/14 A301 RMK A01 T03190136  RH  033%=      5-min Rain = 0
KHO1 171746Z 19010KT 32/14 A301 RMK A01 T03210138  RH  033%=      5-min Rain = 0
KHO1 171747Z 18009KT 32/14 A301 RMK A01 T03200138  RH  033%=      5-min Rain = 0
KHO1 171748Z 18011KT 32/14 A301 RMK A01 T03220137  RH  033%=      5-min Rain = 0
KHO1 171749Z 18008KT 32/14 A301 RMK A01 T03230137  RH  032%=      5-min Rain = 0
KHO1 171750Z 19009KT 33/13 A301 RMK A01 T03260134  RH  031%=      5-min Rain = 0
KHO1 171751Z 18012KT 33/13 A301 RMK A01 T03250131  RH  031%=      5-min Rain = 0
KHO1 171752Z 20010KT 32/13 A301 RMK A01 T03220130  RH  031%=      5-min Rain = 0
KHO1 171753Z 18010KT 32/13 A301 RMK A01 T03180130  RH  032%=      5-min Rain = 0
KHO1 171754Z 17010KT 32/13 A301 RMK A01 T03200130  RH  031%=      5-min Rain = 0
KHO1 171755Z 17008KT 32/12 A301 RMK A01 T03200124  RH  030%=      5-min Rain = 0
KHO1 171756Z 18008KT 32/13 A301 RMK A01 T03210127  RH  031%=      5-min Rain = 0
KHO1 171757Z 18014KT 32/13 A301 RMK A01 T03220129  RH  031%=      5-min Rain = 0
KHO1 171758Z 18013KT 32/13 A301 RMK A01 T03210128  RH  031%=      5-min Rain = 0
KHO1 171759Z 18007KT 32/13 A301 RMK A01 T03190125  RH  031%=      5-min Rain = 0
KHO1 171800Z 19009KT 32/13 A301 RMK A01 T03190130  RH  032%=      5-min Rain = 0
KHO1 171801Z 17013KT 32/13 A301 RMK A01 T03180127  RH  031%=      5-min Rain = 0
KHO1 171802Z 16012KT 32/12 A301 RMK A01 T03170124  RH  031%=      5-min Rain = 0
KHO1 171803Z 17010KT 32/13 A301 RMK A01 T03160129  RH  032%=      5-min Rain = 0
KHO1 171804Z 15010G15KT 32/13 A301 RMK A01 T03210133  RH  032%=      5-min Rain = 0
KHO1 171805Z 14010KT 32/13 A301 RMK A01 T03240130  RH  031%=      5-min Rain = 0
KHO1 171806Z 16009KT 33/13 A301 RMK A01 T03260128  RH  030%=      5-min Rain = 0
KHO1 171807Z 16009G14KT 32/12 A301 RMK A01 T03220122  RH  030%=      5-min Rain = 0
KHO1 171808Z 15011KT 32/12 A3009 RMK A01 T03210118  RH  029%=      5-min Rain = 0
KHO1 171809Z 15009KT 32/12 A3009 RMK A01 T03220120  RH  029%=      5-min Rain = 0
KHO1 171810Z 14011KT 33/12 A3009 RMK A01 T03250123  RH  029%=      5-min Rain = 0
KHO1 171811Z 15014KT 32/13 A3009 RMK A01 T03240134  RH  032%=      5-min Rain = 0
KHO1 171812Z 15013KT 33/14 A3009 RMK A01 T03250136  RH  032%=      5-min Rain = 0
KHO1 171813Z 16011KT 32/13 A3009 RMK A01 T03230134  RH  032%=      5-min Rain = 0
KHO1 171814Z 16007G12KT 32/13 A3009 RMK A01 T03200134  RH  032%=      5-min Rain = 0
KHO1 171815Z 17014KT 32/14 A3009 RMK A01 T03220135  RH  032%=      5-min Rain = 0
KHO1 171816Z 17014KT 32/13 A3009 RMK A01 T03220130  RH  031%=      5-min Rain = 0
KHO1 171817Z 18008KT 32/13 A3009 RMK A01 T03210129  RH  031%=      5-min Rain = 0
KHO1 171818Z 16008KT 32/14 A3009 RMK A01 T03230135  RH  032%=      5-min Rain = 0
KHO1 171819Z 16010KT 33/14 A3009 RMK A01 T03280135  RH  031%=      5-min Rain = 0
KHO1 171820Z 16010KT 33/14 A3009 RMK A01 T03270135  RH  031%=      5-min Rain = 0
KHO1 171821Z 16012KT 33/14 A3009 RMK A01 T03280135  RH  031%=      5-min Rain = 0
KHO1 171822Z 18015KT 33/13 A3009 RMK A01 T03290131  RH  030%=      5-min Rain = 0
KHO1 171823Z 19013KT 33/13 A3009 RMK A01 T03270131  RH  030%=      5-min Rain = 0
KHO1 171824Z 18012KT 33/13 A3009 RMK A01 T03280130  RH  030%=      5-min Rain = 0
KHO1 171825Z 19008KT 33/13 A3009 RMK A01 T03250128  RH  030%=      5-min Rain = 0
KHO1 171826Z 19005KT 32/13 A3009 RMK A01 T03210125  RH  030%=      5-min Rain = 0
KHO1 171827Z 18005KT 32/13 A3009 RMK A01 T03180126  RH  031%=      5-min Rain = 0
KHO1 171828Z 17008KT 32/13 A3009 RMK A01 T03220129  RH  031%=      5-min Rain = 0
KHO1 171829Z 18005KT 32/13 A3009 RMK A01 T03220128  RH  031%=      5-min Rain = 0
KHO1 171830Z 16007KT 32/13 A3009 RMK A01 T03210128  RH  031%=      5-min Rain = 0
KHO1 171831Z 16009KT 32/13 A3009 RMK A01 T03240129  RH  031%=      5-min Rain = 0
KHO1 171832Z 18012KT 33/13 A3009 RMK A01 T03260130  RH  030%=      5-min Rain = 0
KHO1 171833Z 19012KT 33/13 A3009 RMK A01 T03260130  RH  030%=      5-min Rain = 0
KHO1 171834Z 16011KT 33/13 A3009 RMK A01 T03260132  RH  031%=      5-min Rain = 0
KHO1 171835Z 16007KT 33/13 A3009 RMK A01 T03250129  RH  030%=      5-min Rain = 0
KHO1 171836Z 18007KT 33/13 A3009 RMK A01 T03250130  RH  031%=      5-min Rain = 0
KHO1 171837Z 19011KT 33/13 A3009 RMK A01 T03260130  RH  030%=      5-min Rain = 0
KHO1 171838Z 17011KT 33/13 A3008 RMK A01 T03280130  RH  030%=      5-min Rain = 0
KHO1 171839Z 16012KT 33/13 A3008 RMK A01 T03280126  RH  029%=      5-min Rain = 0
KHO1 171840Z 16008KT 33/13 A3008 RMK A01 T03280127  RH  030%=      5-min Rain = 0
KHO1 171841Z 15007KT 33/13 A3008 RMK A01 T03250125  RH  029%=      5-min Rain = 0
KHO1 171842Z 15010KT 32/12 A3008 RMK A01 T03240124  RH  030%=      5-min Rain = 0
KHO1 171843Z 17012KT 32/12 A3008 RMK A01 T03240124  RH  029%=      5-min Rain = 0
KHO1 171844Z 18012KT 33/13 A3008 RMK A01 T03280131  RH  030%=      5-min Rain = 0
KHO1 171845Z 18012KT 33/13 A3008 RMK A01 T03290130  RH  030%=      5-min Rain = 0
KHO1 171846Z 18010KT 33/13 A3008 RMK A01 T03280130  RH  030%=      5-min Rain = 0
KHO1 171847Z 18008KT 33/12 A3008 RMK A01 T03260124  RH  029%=      5-min Rain = 0
KHO1 171848Z 15004KT 33/12 A3008 RMK A01 T03250122  RH  029%=      5-min Rain = 0
KHO1 171849Z 15003KT 32/12 A3008 RMK A01 T03220121  RH  029%=      5-min Rain = 0
KHO1 171850Z 17011KT 33/13 A3008 RMK A01 T03260126  RH  030%=      5-min Rain = 0
KHO1 171851Z 17010KT 33/12 A3008 RMK A01 T03280124  RH  029%=      5-min Rain = 0
KHO1 171852Z 16008KT 33/13 A3008 RMK A01 T03300126  RH  029%=      5-min Rain = 0
KHO1 171853Z 20007KT 33/13 A3008 RMK A01 T03300126  RH  029%=      5-min Rain = 0
KHO1 171854Z 16007KT 33/13 A3008 RMK A01 T03310130  RH  029%=      5-min Rain = 0
KHO1 171855Z 16007KT 34/13 A3008 RMK A01 T03360126  RH  028%=      5-min Rain = 0
KHO1 171856Z 16005KT 33/12 A3008 RMK A01 T03320124  RH  028%=      5-min Rain = 0
KHO1 171857Z 16005KT 33/13 A3007 RMK A01 T03310125  RH  029%=      5-min Rain = 0
KHO1 171858Z 19004KT 33/12 A3007 RMK A01 T03290124  RH  029%=      5-min Rain = 0
KHO1 171859Z 20005KT 33/13 A3007 RMK A01 T03300126  RH  029%=      5-min Rain = 0
KHO1 171900Z 18005KT 33/13 A3007 RMK A01 T03310128  RH  029%=      5-min Rain = 0
KHO1 171901Z 16010KT 33/13 A3007 RMK A01 T03330129  RH  029%=      5-min Rain = 0
KHO1 171902Z 16010KT 33/13 A3007 RMK A01 T03330128  RH  029%=      5-min Rain = 0
KHO1 171903Z 17010KT 34/13 A3007 RMK A01 T03360126  RH  028%=      5-min Rain = 0
KHO1 171904Z 18008KT 34/12 A3007 RMK A01 T03350123  RH  028%=      5-min Rain = 0
KHO1 171905Z 18006KT 33/12 A3007 RMK A01 T03290121  RH  028%=      5-min Rain = 0
KHO1 171906Z 19007KT 33/12 A3007 RMK A01 T03310124  RH  028%=      5-min Rain = 0
KHO1 171907Z 18008KT 33/13 A3007 RMK A01 T03330126  RH  028%=      5-min Rain = 0
KHO1 171908Z 16012KT 34/12 A3007 RMK A01 T03380124  RH  027%=      5-min Rain = 0
KHO1 171909Z 16011KT 34/12 A3007 RMK A01 T03360122  RH  027%=      5-min Rain = 0
KHO1 171910Z 17007KT 33/12 A3007 RMK A01 T03310119  RH  028%=      5-min Rain = 0
KHO1 171911Z 17003KT 33/12 A3007 RMK A01 T03280119  RH  028%=      5-min Rain = 0
KHO1 171912Z 17002KT 33/12 A3007 RMK A01 T03260119  RH  028%=      5-min Rain = 0
KHO1 171913Z 19002KT 33/12 A3007 RMK A01 T03260120  RH  029%=      5-min Rain = 0
KHO1 171914Z 18003KT 33/12 A3007 RMK A01 T03270122  RH  029%=      5-min Rain = 0
KHO1 171915Z 14007KT 33/13 A3007 RMK A01 T03300127  RH  029%=      5-min Rain = 0
KHO1 171916Z 18005KT 33/13 A3007 RMK A01 T03330128  RH  029%=      5-min Rain = 0
KHO1 171917Z 17005KT 34/13 A3007 RMK A01 T03350127  RH  028%=      5-min Rain = 0
KHO1 171918Z 17006KT 34/13 A3007 RMK A01 T03380127  RH  028%=      5-min Rain = 0
KHO1 171919Z 16004G9KT 34/12 A3007 RMK A01 T03370122  RH  027%=      5-min Rain = 0
KHO1 171920Z 16010KT 34/12 A3006 RMK A01 T03400123  RH  027%=      5-min Rain = 0
KHO1 171921Z 17007KT 34/12 A3006 RMK A01 T03380119  RH  026%=      5-min Rain = 0
KHO1 171922Z 15008KT 34/12 A3006 RMK A01 T03370123  RH  027%=      5-min Rain = 0
KHO1 171923Z 13007KT 34/12 A3006 RMK A01 T03390122  RH  027%=      5-min Rain = 0
KHO1 171924Z 13009KT 34/12 A3006 RMK A01 T03400122  RH  027%=      5-min Rain = 0
KHO1 171925Z 16007KT 34/12 A3006 RMK A01 T03420121  RH  026%=      5-min Rain = 0
KHO1 171926Z 16014KT 34/12 A3006 RMK A01 T03420118  RH  026%=      5-min Rain = 0
KHO1 171927Z 16013KT 34/12 A3006 RMK A01 T03400118  RH  026%=      5-min Rain = 0
KHO1 171928Z 15013KT 34/12 A3006 RMK A01 T03420121  RH  026%=      5-min Rain = 0
KHO1 171929Z 14011KT 34/12 A3006 RMK A01 T03390121  RH  027%=      5-min Rain = 0
KHO1 171930Z 15010KT 34/12 A3006 RMK A01 T03370119  RH  027%=      5-min Rain = 0
KHO1 171931Z 13010KT 34/12 A3006 RMK A01 T03390119  RH  026%=      5-min Rain = 0
KHO1 171932Z 13006KT 34/12 A3006 RMK A01 T03390119  RH  026%=      5-min Rain = 0
KHO1 171933Z 14007KT 34/12 A3006 RMK A01 T03390120  RH  027%=      5-min Rain = 0
KHO1 171934Z 17009KT 34/12 A3006 RMK A01 T03370116  RH  026%=      5-min Rain = 0
KHO1 171935Z 15008KT 33/11 A3006 RMK A01 T03340114  RH  026%=      5-min Rain = 0
KHO1 171936Z 15006KT 34/12 A3006 RMK A01 T03350117  RH  027%=      5-min Rain = 0
KHO1 171937Z 16006KT 34/11 A3006 RMK A01 T03360112  RH  025%=      5-min Rain = 0
KHO1 171938Z 13004KT 33/11 A3006 RMK A01 T03340110  RH  025%=      5-min Rain = 0
KHO1 171939Z 13001KT 33/11 A3006 RMK A01 T03330111  RH  026%=      5-min Rain = 0
KHO1 171940Z 11002KT 34/11 A3006 RMK A01 T03360114  RH  026%=      5-min Rain = 0
KHO1 171941Z 16005KT 34/11 A3006 RMK A01 T03400114  RH  025%=      5-min Rain = 0
KHO1 171942Z 17007KT 34/11 A3006 RMK A01 T03440110  RH  024%=      5-min Rain = 0
KHO1 171943Z 17008KT 34/11 A3006 RMK A01 T03430110  RH  024%=      5-min Rain = 0
KHO1 171944Z 13007KT 34/11 A3006 RMK A01 T03440113  RH  025%=      5-min Rain = 0
KHO1 171945Z 12008KT 35/11 A3005 RMK A01 T03470113  RH  024%=      5-min Rain = 0
KHO1 171946Z 12010KT 35/11 A3005 RMK A01 T03460112  RH  024%=      5-min Rain = 0
KHO1 171947Z 13009KT 35/12 A3005 RMK A01 T03460116  RH  025%=      5-min Rain = 0
KHO1 171948Z 13008KT 34/11 A3005 RMK A01 T03440114  RH  025%=      5-min Rain = 0
KHO1 171949Z 11007KT 35/12 A3005 RMK A01 T03470115  RH  025%=      5-min Rain = 0
KHO1 171950Z 12004KT 35/11 A3005 RMK A01 T03480112  RH  024%=      5-min Rain = 0
KHO1 171951Z 11003KT 35/12 A3005 RMK A01 T03470115  RH  025%=      5-min Rain = 0
KHO1 171952Z 09001KT 35/11 A3005 RMK A01 T03490114  RH  024%=      5-min Rain = 0
KHO1 171953Z 03004KT 35/11 A3005 RMK A01 T03510111  RH  023%=      5-min Rain = 0
KHO1 171954Z 02002KT 35/11 A3005 RMK A01 T03480113  RH  024%=      5-min Rain = 0
KHO1 171955Z 17002KT 35/11 A3005 RMK A01 T03460113  RH  024%=      5-min Rain = 0
KHO1 171956Z 17006KT 34/11 A3005 RMK A01 T03440107  RH  024%=      5-min Rain = 0
KHO1 171957Z 18003KT 34/11 A3005 RMK A01 T03420107  RH  024%=      5-min Rain = 0
KHO1 171958Z 17005KT 34/11 A3005 RMK A01 T03410109  RH  024%=      5-min Rain = 0
KHO1 171959Z 13004KT 34/11 A3005 RMK A01 T03410110  RH  024%=      5-min Rain = 0
KHO1 172000Z 15006G12KT 34/12 A3005 RMK A01 T03440115  RH  025%=      5-min Rain = 0
KHO1 172001Z 14011KT 35/11 A3004 RMK A01 T03470113  RH  024%=      5-min Rain = 0
KHO1 172002Z 15008KT 34/11 A3004 RMK A01 T03420113  RH  025%=      5-min Rain = 0
KHO1 172003Z 16006KT 34/11 A3004 RMK A01 T03440114  RH  025%=      5-min Rain = 0
KHO1 172004Z 16007KT 35/11 A3004 RMK A01 T03470114  RH  024%=      5-min Rain = 0
KHO1 172005Z 14007KT 35/12 A3004 RMK A01 T03470115  RH  025%=      5-min Rain = 0
KHO1 172006Z 12004KT 34/11 A3004 RMK A01 T03440112  RH  024%=      5-min Rain = 0
KHO1 172007Z 15008KT 35/11 A3004 RMK A01 T03450112  RH  024%=      5-min Rain = 0
KHO1 172008Z 19008KT 35/11 A3004 RMK A01 T03450107  RH  023%=      5-min Rain = 0
KHO1 172009Z 18007KT 34/11 A3004 RMK A01 T03430108  RH  024%=      5-min Rain = 0
KHO1 172010Z 15008KT 34/12 A3004 RMK A01 T03440119  RH  026%=      5-min Rain = 0
KHO1 172011Z 14011KT 35/12 A3004 RMK A01 T03490121  RH  025%=      5-min Rain = 0
KHO1 172012Z 14011KT 34/12 A3004 RMK A01 T03440120  RH  026%=      5-min Rain = 0
KHO1 172013Z 14008KT 34/12 A3004 RMK A01 T03440120  RH  026%=      5-min Rain = 0
KHO1 172014Z 16005KT 34/12 A3004 RMK A01 T03430121  RH  026%=      5-min Rain = 0
KHO1 172015Z 13005KT 35/12 A3004 RMK A01 T03460124  RH  026%=      5-min Rain = 0
KHO1 172016Z 13006KT 35/12 A3004 RMK A01 T03500122  RH  025%=      5-min Rain = 0
KHO1 172017Z 18007KT 35/12 A3004 RMK A01 T03490120  RH  025%=      5-min Rain = 0
KHO1 172018Z 20010KT 35/12 A3004 RMK A01 T03460117  RH  025%=      5-min Rain = 0
KHO1 172019Z 19004KT 34/12 A3004 RMK A01 T03440116  RH  025%=      5-min Rain = 0
KHO1 172020Z 19002KT 34/11 A3004 RMK A01 T03430114  RH  025%=      5-min Rain = 0
KHO1 172021Z 19002G11KT 35/12 A3004 RMK A01 T03450119  RH  025%=      5-min Rain = 0
KHO1 172022Z 18010KT 35/12 A3003 RMK A01 T03480119  RH  025%=      5-min Rain = 0
KHO1 172023Z 13010KT 35/12 A3003 RMK A01 T03520121  RH  025%=      5-min Rain = 0
KHO1 172024Z 15008KT 35/12 A3004 RMK A01 T03540119  RH  024%=      5-min Rain = 0
KHO1 172025Z 15006KT 35/11 A3004 RMK A01 T03470113  RH  024%=      5-min Rain = 0
KHO1 172026Z 15005KT 34/11 A3004 RMK A01 T03430114  RH  025%=      5-min Rain = 0
KHO1 172027Z 15008KT 34/12 A3004 RMK A01 T03430116  RH  025%=      5-min Rain = 0
KHO1 172028Z 16010KT 35/12 A3004 RMK A01 T03470116  RH  025%=      5-min Rain = 0
KHO1 172029Z 17009KT 35/12 A3003 RMK A01 T03460115  RH  025%=      5-min Rain = 0
KHO1 172030Z 17008KT 35/12 A3003 RMK A01 T03480115  RH  024%=      5-min Rain = 0
KHO1 172031Z 16008KT 35/12 A3003 RMK A01 T03480115  RH  024%=      5-min Rain = 0
KHO1 172032Z 19009KT 35/12 A3003 RMK A01 T03490115  RH  024%=      5-min Rain = 0
KHO1 172033Z 15008KT 35/12 A3003 RMK A01 T03510118  RH  024%=      5-min Rain = 0
KHO1 172034Z 14008KT 35/11 A3003 RMK A01 T03520114  RH  024%=      5-min Rain = 0
KHO1 172035Z 13008KT 35/12 A3003 RMK A01 T03490115  RH  024%=      5-min Rain = 0
KHO1 172036Z 14007KT 35/11 A3003 RMK A01 T03480113  RH  024%=      5-min Rain = 0
KHO1 172037Z 12011KT 35/11 A3003 RMK A01 T03490114  RH  024%=      5-min Rain = 0
KHO1 172038Z 12010KT 35/11 A3003 RMK A01 T03490113  RH  024%=      5-min Rain = 0
KHO1 172039Z 13007KT 35/11 A3003 RMK A01 T03490113  RH  024%=      5-min Rain = 0
KHO1 172040Z 13003KT 35/11 A3003 RMK A01 T03480111  RH  024%=      5-min Rain = 0
KHO1 172041Z 06003KT 35/11 A3003 RMK A01 T03500114  RH  024%=      5-min Rain = 0
KHO1 172042Z 11008KT 36/12 A3003 RMK A01 T03550117  RH  024%=      5-min Rain = 0
KHO1 172043Z 10006KT 36/11 A3003 RMK A01 T03590113  RH  023%=      5-min Rain = 0
KHO1 172044Z 08003KT 36/12 A3003 RMK A01 T03610115  RH  023%=      5-min Rain = 0
KHO1 172045Z 11007G12KT 36/11 A3003 RMK A01 T03630114  RH  022%=      5-min Rain = 0
KHO1 172046Z 13010KT 36/11 A3003 RMK A01 T03620111  RH  022%=      5-min Rain = 0
KHO1 172047Z 14010KT 35/11 A3003 RMK A01 T03530108  RH  023%=      5-min Rain = 0
KHO1 172048Z 14007KT 35/11 A3003 RMK A01 T03480108  RH  023%=      5-min Rain = 0
KHO1 172049Z 14006KT 35/11 A3003 RMK A01 T03480108  RH  023%=      5-min Rain = 0
KHO1 172050Z 15006KT 35/11 A3003 RMK A01 T03470108  RH  023%=      5-min Rain = 0
KHO1 172051Z 15002KT 35/11 A3003 RMK A01 T03480106  RH  023%=      5-min Rain = 0
KHO1 172052Z 12002KT 35/11 A3003 RMK A01 T03490108  RH  023%=      5-min Rain = 0
KHO1 172053Z 15006KT 35/11 A3003 RMK A01 T03510109  RH  023%=      5-min Rain = 0
KHO1 172054Z 16005KT 35/10 A3003 RMK A01 T03490104  RH  022%=      5-min Rain = 0
KHO1 172055Z 13006G12KT 35/11 A3003 RMK A01 T03470108  RH  023%=      5-min Rain = 0
KHO1 172056Z 12011KT 35/11 A3003 RMK A01 T03530112  RH  023%=      5-min Rain = 0
KHO1 172057Z 13009KT 36/11 A3003 RMK A01 T03560111  RH  023%=      5-min Rain = 0
KHO1 172058Z 15008KT 36/11 A3003 RMK A01 T03550109  RH  022%=      5-min Rain = 0
KHO1 172059Z 16005KT 35/11 A3003 RMK A01 T03490107  RH  023%=      5-min Rain = 0
KHO1 172100Z 05003KT 35/11 A3003 RMK A01 T03500111  RH  023%=      5-min Rain = 0
KHO1 172101Z 07004KT 35/11 A3003 RMK A01 T03540114  RH  023%=      5-min Rain = 0
KHO1 172102Z 07005KT 36/12 A3002 RMK A01 T03590115  RH  023%=      5-min Rain = 0
KHO1 172103Z 07005KT 36/11 A3002 RMK A01 T03630114  RH  022%=      5-min Rain = 0
KHO1 172104Z 10006KT 37/11 A3002 RMK A01 T03660113  RH  022%=      5-min Rain = 0
KHO1 172105Z 09005KT 37/11 A3002 RMK A01 T03680111  RH  021%=      5-min Rain = 0
KHO1 172106Z 10006KT 37/11 A3002 RMK A01 T03680110  RH  021%=      5-min Rain = 0
KHO1 172107Z 09004KT 37/11 A3002 RMK A01 T03690111  RH  021%=      5-min Rain = 0
KHO1 172108Z 10007KT 37/11 A3002 RMK A01 T03700110  RH  021%=      5-min Rain = 0
KHO1 172109Z 10007KT 37/11 A3002 RMK A01 T03710107  RH  020%=      5-min Rain = 0
KHO1 172110Z 15007KT 37/11 A3002 RMK A01 T03670106  RH  021%=      5-min Rain = 0
KHO1 172111Z 13009KT 37/11 A3002 RMK A01 T03650106  RH  021%=      5-min Rain = 0
KHO1 172112Z 12006KT 36/10 A3002 RMK A01 T03600103  RH  021%=      5-min Rain = 0
KHO1 172113Z 09002KT 36/11 A3002 RMK A01 T03600106  RH  021%=      5-min Rain = 0
KHO1 172114Z 10004KT 36/11 A3002 RMK A01 T03630105  RH  021%=      5-min Rain = 0
KHO1 172115Z 08003KT 36/10 A3002 RMK A01 T03630104  RH  021%=      5-min Rain = 0
KHO1 172116Z 12006KT 36/11 A3002 RMK A01 T03630106  RH  021%=      5-min Rain = 0
KHO1 172117Z 15009KT 36/10 A3002 RMK A01 T03610104  RH  021%=      5-min Rain = 0
KHO1 172118Z 17006KT 35/10 A3002 RMK A01 T03540100  RH  021%=      5-min Rain = 0
KHO1 172119Z 12003KT 35/11 A3002 RMK A01 T03540106  RH  022%=      5-min Rain = 0
KHO1 172120Z 11001KT 36/11 A3002 RMK A01 T03580105  RH  022%=      5-min Rain = 0
KHO1 172121Z 11001KT 36/11 A3002 RMK A01 T03590107  RH  022%=      5-min Rain = 0
KHO1 172122Z 09002KT 36/11 A3002 RMK A01 T03610109  RH  022%=      5-min Rain = 0
KHO1 172123Z 12009KT 36/10 A3002 RMK A01 T03630104  RH  021%=      5-min Rain = 0
KHO1 172124Z 11010KT 36/10 A3002 RMK A01 T03620100  RH  021%=      5-min Rain = 0
KHO1 172125Z 11008G13KT 37/10 A3002 RMK A01 T03650100  RH  020%=      5-min Rain = 0
KHO1 172126Z 12007KT 36/10 A3002 RMK A01 T03640097  RH  020%=      5-min Rain = 0
KHO1 172127Z 12008KT 36/10 A3001 RMK A01 T03600098  RH  020%=      5-min Rain = 0
KHO1 172128Z 10006KT 36/10 A3002 RMK A01 T03600099  RH  021%=      5-min Rain = 0
KHO1 172129Z 06005KT 36/10 A3001 RMK A01 T03640102  RH  020%=      5-min Rain = 0
KHO1 172130Z 12005G11KT 37/10 A3001 RMK A01 T03670100  RH  020%=      5-min Rain = 0
KHO1 172131Z 16011KT 36/10 A3001 RMK A01 T03630097  RH  020%=      5-min Rain = 0
KHO1 172132Z 17008KT 36/10 A3001 RMK A01 T03560096  RH  021%=      5-min Rain = 0
KHO1 172133Z 17008KT 35/10 A3001 RMK A01 T03520095  RH  021%=      5-min Rain = 0
KHO1 172134Z 15005KT 35/10 A3001 RMK A01 T03510098  RH  021%=      5-min Rain = 0
KHO1 172135Z 13001KT 35/10 A3001 RMK A01 T03510097  RH  021%=      5-min Rain = 0
KHO1 172136Z 19004KT 35/10 A3001 RMK A01 T03510098  RH  021%=      5-min Rain = 0
KHO1 172137Z 18004KT 35/10 A3001 RMK A01 T03500100  RH  022%=      5-min Rain = 0
KHO1 172138Z 15004KT 35/10 A3001 RMK A01 T03500101  RH  022%=      5-min Rain = 0
KHO1 172139Z 18005KT 35/10 A3001 RMK A01 T03510104  RH  022%=      5-min Rain = 0
KHO1 172140Z 20004KT 35/11 A3001 RMK A01 T03520107  RH  023%=      5-min Rain = 0
KHO1 172141Z 17008KT 35/11 A3001 RMK A01 T03540106  RH  022%=      5-min Rain = 0
KHO1 172142Z 17006KT 35/10 A3001 RMK A01 T03510104  RH  022%=      5-min Rain = 0
KHO1 172143Z 16007KT 35/11 A3001 RMK A01 T03500105  RH  023%=      5-min Rain = 0
KHO1 172144Z 16005KT 35/11 A3001 RMK A01 T03500106  RH  023%=      5-min Rain = 0
KHO1 172145Z 16006KT 35/10 A3001 RMK A01 T03510104  RH  022%=      5-min Rain = 0
KHO1 172146Z 15006KT 35/10 A3001 RMK A01 T03520104  RH  022%=      5-min Rain = 0
KHO1 172147Z 14006KT 35/10 A30 RMK A01 T03520103  RH  022%=      5-min Rain = 0
KHO1 172148Z 12005KT 35/11 A30 RMK A01 T03520105  RH  022%=      5-min Rain = 0
KHO1 172149Z 10004KT 36/11 A30 RMK A01 T03550106  RH  022%=      5-min Rain = 0
KHO1 172150Z 11004KT 36/11 A30 RMK A01 T03590106  RH  022%=      5-min Rain = 0
KHO1 172151Z 16005KT 36/10 A30 RMK A01 T03610102  RH  021%=      5-min Rain = 0
KHO1 172152Z 15008KT 36/10 A30 RMK A01 T03570101  RH  021%=      5-min Rain = 0
KHO1 172153Z 16006KT 35/10 A30 RMK A01 T03540101  RH  021%=      5-min Rain = 0
KHO1 172154Z 16005KT 35/10 A30 RMK A01 T03510098  RH  021%=      5-min Rain = 0
KHO1 172155Z 14004KT 35/10 A30 RMK A01 T03480099  RH  022%=      5-min Rain = 0
KHO1 172156Z 14003KT 35/10 A30 RMK A01 T03500103  RH  022%=      5-min Rain = 0
KHO1 172157Z 18002KT 35/10 A30 RMK A01 T03530100  RH  021%=      5-min Rain = 0
KHO1 172158Z 13001KT 35/10 A2999 RMK A01 T03540102  RH  022%=      5-min Rain = 0
KHO1 172159Z 09003KT 36/10 A2999 RMK A01 T03580103  RH  021%=      5-min Rain = 0
KHO1 172200Z 12004KT 36/11 A2999 RMK A01 T03610106  RH  021%=      5-min Rain = 0
KHO1 172201Z 14007KT 37/11 A2999 RMK A01 T03660107  RH  021%=      5-min Rain = 0
KHO1 172202Z 13009KT 36/10 A2999 RMK A01 T03640100  RH  020%=      5-min Rain = 0
KHO1 172203Z 15012KT 36/10 A2999 RMK A01 T03630100  RH  020%=      5-min Rain = 0
KHO1 172204Z 15012KT 36/10 A2999 RMK A01 T03580097  RH  020%=      5-min Rain = 0
KHO1 172205Z 14010KT 35/10 A2999 RMK A01 T03540098  RH  021%=      5-min Rain = 0
KHO1 172206Z 14008KT 36/10 A2999 RMK A01 T03550102  RH  021%=      5-min Rain = 0
KHO1 172207Z 16007KT 36/10 A2999 RMK A01 T03560099  RH  021%=      5-min Rain = 0
KHO1 172208Z 18005KT 35/10 A30 RMK A01 T03540097  RH  021%=      5-min Rain = 0
KHO1 172209Z 18004KT 35/10 A2999 RMK A01 T03520097  RH  021%=      5-min Rain = 0
KHO1 172210Z 17005KT 35/10 A30 RMK A01 T03510096  RH  021%=      5-min Rain = 0
KHO1 172211Z 14007KT 35/10 A2999 RMK A01 T03530097  RH  021%=      5-min Rain = 0
KHO1 172212Z 12007G12KT 35/10 A2999 RMK A01 T03540097  RH  021%=      5-min Rain = 0
KHO1 172213Z 12009KT 36/10 A2999 RMK A01 T03570096  RH  020%=      5-min Rain = 0
KHO1 172214Z 11009KT 36/10 A2999 RMK A01 T03590098  RH  021%=      5-min Rain = 0
KHO1 172215Z 11010KT 36/10 A2999 RMK A01 T03630098  RH  020%=      5-min Rain = 0
KHO1 172216Z 10007KT 36/10 A2999 RMK A01 T03620098  RH  020%=      5-min Rain = 0
KHO1 172217Z 11008KT 36/10 A2999 RMK A01 T03640097  RH  020%=      5-min Rain = 0
KHO1 172218Z 08006KT 37/10 A2999 RMK A01 T03660099  RH  020%=      5-min Rain = 0
KHO1 172219Z 09005G10KT 37/10 A2999 RMK A01 T03690098  RH  019%=      5-min Rain = 0
KHO1 172220Z 12009KT 37/10 A2999 RMK A01 T03710096  RH  019%=      5-min Rain = 0
KHO1 172221Z 14009KT 37/09 A2999 RMK A01 T03670093  RH  019%=      5-min Rain = 0
KHO1 172222Z 15011KT 36/09 A2999 RMK A01 T03630093  RH  019%=      5-min Rain = 0
KHO1 172223Z 14010KT 36/09 A2999 RMK A01 T03610094  RH  020%=      5-min Rain = 0
KHO1 172224Z 15008KT 36/09 A2999 RMK A01 T03600091  RH  019%=      5-min Rain = 0
KHO1 172225Z 15006KT 36/09 A2999 RMK A01 T03580094  RH  020%=      5-min Rain = 0
KHO1 172226Z 15007KT 36/09 A2999 RMK A01 T03580092  RH  020%=      5-min Rain = 0
KHO1 172227Z 15005KT 35/09 A2999 RMK A01 T03540092  RH  020%=      5-min Rain = 0
KHO1 172228Z 14004KT 36/10 A2999 RMK A01 T03560095  RH  020%=      5-min Rain = 0
KHO1 172229Z 16006KT 36/10 A2999 RMK A01 T03590096  RH  020%=      5-min Rain = 0
KHO1 172230Z 16005KT 36/09 A2999 RMK A01 T03560091  RH  020%=      5-min Rain = 0
KHO1 172231Z 09003KT 35/09 A2999 RMK A01 T03530090  RH  020%=      5-min Rain = 0
KHO1 172232Z 07001KT 35/09 A2999 RMK A01 T03540092  RH  020%=      5-min Rain = 0
KHO1 172233Z 12002KT 36/09 A2999 RMK A01 T03550094  RH  020%=      5-min Rain = 0
KHO1 172234Z 09004KT 36/10 A2999 RMK A01 T03580097  RH  020%=      5-min Rain = 0
KHO1 172235Z 06002KT 36/10 A2999 RMK A01 T03630097  RH  020%=      5-min Rain = 0
KHO1 172236Z 02004KT 37/09 A2998 RMK A01 T03660092  RH  019%=      5-min Rain = 0
KHO1 172237Z 03004KT 36/09 A2998 RMK A01 T03640093  RH  019%=      5-min Rain = 0
KHO1 172238Z 04004KT 36/10 A2998 RMK A01 T03640095  RH  020%=      5-min Rain = 0
KHO1 172239Z 08005KT 37/10 A2998 RMK A01 T03660097  RH  020%=      5-min Rain = 0
KHO1 172240Z 07004KT 37/10 A2998 RMK A01 T03690098  RH  019%=      5-min Rain = 0
KHO1 172241Z 09006KT 37/10 A2998 RMK A01 T03720095  RH  019%=      5-min Rain = 0
KHO1 172242Z 13006KT 37/09 A2998 RMK A01 T03700090  RH  018%=      5-min Rain = 0
KHO1 172243Z 14007KT 36/09 A2998 RMK A01 T03640089  RH  019%=      5-min Rain = 0
KHO1 172244Z 13009KT 36/09 A2998 RMK A01 T03630092  RH  019%=      5-min Rain = 0
KHO1 172245Z 11009KT 37/09 A2999 RMK A01 T03650093  RH  019%=      5-min Rain = 0
KHO1 172246Z 13008KT 37/09 A2999 RMK A01 T03670092  RH  019%=      5-min Rain = 0
KHO1 172247Z 11008KT 37/09 A2999 RMK A01 T03660092  RH  019%=      5-min Rain = 0
KHO1 172248Z 12005KT 37/09 A2999 RMK A01 T03670093  RH  019%=      5-min Rain = 0
KHO1 172249Z 16007KT 37/09 A2999 RMK A01 T03660088  RH  018%=      5-min Rain = 0
KHO1 172250Z 17007KT 36/09 A2999 RMK A01 T03630088  RH  019%=      5-min Rain = 0
KHO1 172251Z 18008KT 36/09 A2999 RMK A01 T03630089  RH  019%=      5-min Rain = 0
KHO1 172252Z 18009KT 36/09 A2999 RMK A01 T03610086  RH  019%=      5-min Rain = 0
KHO1 172253Z 18006KT 36/09 A2999 RMK A01 T03570086  RH  019%=      5-min Rain = 0
KHO1 172254Z 18007KT 36/09 A2999 RMK A01 T03560087  RH  019%=      5-min Rain = 0
KHO1 172255Z 18008KT 36/09 A2999 RMK A01 T03560089  RH  020%=      5-min Rain = 0
KHO1 172256Z 16006KT 36/09 A2999 RMK A01 T03570089  RH  019%=      5-min Rain = 0
KHO1 172257Z 17007KT 36/09 A2999 RMK A01 T03580090  RH  019%=      5-min Rain = 0
KHO1 172258Z 17004KT 36/09 A2999 RMK A01 T03590090  RH  019%=      5-min Rain = 0
KHO1 172259Z 17005KT 36/09 A2999 RMK A01 T03570087  RH  019%=      5-min Rain = 0
KHO1 172300Z 15004KT 36/09 A2999 RMK A01 T03560090  RH  020%=      5-min Rain = 0
KHO1 172301Z 16005KT 36/09 A2999 RMK A01 T03570091  RH  020%=      5-min Rain = 0
KHO1 172302Z 13008KT 36/09 A2999 RMK A01 T03570092  RH  020%=      5-min Rain = 0
KHO1 172303Z 14008KT 36/09 A2999 RMK A01 T03560091  RH  020%=      5-min Rain = 0
KHO1 172304Z 15006KT 36/09 A2999 RMK A01 T03550090  RH  020%=      5-min Rain = 0
KHO1 172305Z 13002KT 36/09 A2999 RMK A01 T03550090  RH  020%=      5-min Rain = 0
KHO1 172306Z 16006KT 36/09 A2999 RMK A01 T03570093  RH  020%=      5-min Rain = 0
KHO1 172307Z 14007KT 36/09 A2998 RMK A01 T03560091  RH  020%=      5-min Rain = 0
KHO1 172308Z 14003KT 35/09 A2998 RMK A01 T03530090  RH  020%=      5-min Rain = 0
KHO1 172309Z 15003KT 35/09 A2998 RMK A01 T03520091  RH  020%=      5-min Rain = 0
KHO1 172310Z 12002KT 35/09 A2998 RMK A01 T03510092  RH  021%=      5-min Rain = 0
KHO1 172311Z 12004KT 35/09 A2998 RMK A01 T03520092  RH  020%=      5-min Rain = 0
KHO1 172312Z 14006KT 35/09 A2998 RMK A01 T03510092  RH  021%=      5-min Rain = 0
KHO1 172313Z 13008KT 35/09 A2998 RMK A01 T03500093  RH  021%=      5-min Rain = 0
KHO1 172314Z 13009KT 35/09 A2998 RMK A01 T03480094  RH  021%=      5-min Rain = 0
KHO1 172315Z 14008KT 35/09 A2998 RMK A01 T03470094  RH  021%=      5-min Rain = 0
KHO1 172316Z 14007KT 35/10 A2998 RMK A01 T03470096  RH  021%=      5-min Rain = 0
KHO1 172317Z 14007KT 35/10 A2998 RMK A01 T03480095  RH  021%=      5-min Rain = 0
KHO1 172318Z 13006KT 35/10 A2998 RMK A01 T03470095  RH  021%=      5-min Rain = 0
KHO1 172319Z 13009KT 35/10 A2998 RMK A01 T03460095  RH  021%=      5-min Rain = 0
KHO1 172320Z 14006KT 35/09 A2998 RMK A01 T03460094  RH  021%=      5-min Rain = 0
KHO1 172321Z 09005KT 35/10 A2998 RMK A01 T03460095  RH  022%=      5-min Rain = 0
KHO1 172322Z 09003KT 35/10 A2998 RMK A01 T03460095  RH  022%=      5-min Rain = 0
KHO1 172323Z 08001KT 35/10 A2998 RMK A01 T03460095  RH  022%=      5-min Rain = 0
KHO1 172324Z 08001KT 35/09 A2998 RMK A01 T03460094  RH  021%=      5-min Rain = 0
KHO1 172325Z 14002KT 35/10 A2998 RMK A01 T03460095  RH  022%=      5-min Rain = 0
KHO1 172326Z 13003KT 35/09 A2998 RMK A01 T03460094  RH  022%=      5-min Rain = 0
KHO1 172327Z 13004KT 35/10 A2998 RMK A01 T03450095  RH  022%=      5-min Rain = 0
KHO1 172328Z 12007KT 35/10 A2998 RMK A01 T03450095  RH  022%=      5-min Rain = 0
KHO1 172329Z 11006KT 35/09 A2998 RMK A01 T03450094  RH  022%=      5-min Rain = 0
KHO1 172330Z 12006KT 35/09 A2998 RMK A01 T03450094  RH  022%=      5-min Rain = 0
KHO1 172331Z 14008KT 35/10 A2998 RMK A01 T03450095  RH  022%=      5-min Rain = 0
KHO1 172332Z 13007KT 34/10 A2998 RMK A01 T03440095  RH  022%=      5-min Rain = 0
KHO1 172333Z 14007KT 34/10 A2998 RMK A01 T03440096  RH  022%=      5-min Rain = 0
KHO1 172334Z 15006KT 34/10 A2998 RMK A01 T03440097  RH  022%=      5-min Rain = 0
KHO1 172335Z 14011KT 34/10 A2998 RMK A01 T03440102  RH  023%=      5-min Rain = 0
KHO1 172336Z 14011KT 34/11 A2998 RMK A01 T03440105  RH  023%=      5-min Rain = 0
KHO1 172337Z 14012KT 34/10 A2998 RMK A01 T03430104  RH  023%=      5-min Rain = 0
KHO1 172338Z 14011KT 34/10 A2998 RMK A01 T03430104  RH  023%=      5-min Rain = 0
KHO1 172339Z 14010KT 34/11 A2998 RMK A01 T03430105  RH  023%=      5-min Rain = 0
KHO1 172340Z 15011KT 34/10 A2998 RMK A01 T03420103  RH  023%=      5-min Rain = 0
KHO1 172341Z 15008KT 34/10 A2998 RMK A01 T03420103  RH  023%=      5-min Rain = 0
KHO1 172342Z 15008KT 34/10 A2998 RMK A01 T03420103  RH  023%=      5-min Rain = 0
KHO1 172343Z 15010KT 34/11 A2998 RMK A01 T03420105  RH  024%=      5-min Rain = 0
KHO1 172344Z 15011KT 34/11 A2998 RMK A01 T03410106  RH  024%=      5-min Rain = 0
KHO1 172345Z 15009KT 34/11 A2998 RMK A01 T03410106  RH  024%=      5-min Rain = 0
KHO1 172346Z 14010KT 34/11 A2998 RMK A01 T03410106  RH  024%=      5-min Rain = 0
KHO1 172347Z 14008KT 34/11 A2998 RMK A01 T03410105  RH  024%=      5-min Rain = 0
KHO1 172348Z 14009G14KT 34/10 A2998 RMK A01 T03420104  RH  024%=      5-min Rain = 0
KHO1 172349Z 13010KT 34/10 A2998 RMK A01 T03420104  RH  023%=      5-min Rain = 0
KHO1 172350Z 13008KT 34/11 A2998 RMK A01 T03420105  RH  024%=      5-min Rain = 0
KHO1 172351Z 13010KT 34/10 A2998 RMK A01 T03420103  RH  023%=      5-min Rain = 0
KHO1 172352Z 13011KT 34/10 A2997 RMK A01 T03410102  RH  023%=      5-min Rain = 0
KHO1 172353Z 14009KT 34/10 A2997 RMK A01 T03410102  RH  023%=      5-min Rain = 0
KHO1 172354Z 15010KT 34/10 A2997 RMK A01 T03410101  RH  023%=      5-min Rain = 0
KHO1 172355Z 14009KT 34/10 A2997 RMK A01 T03410102  RH  023%=      5-min Rain = 0
KHO1 172356Z 16014G19KT 34/11 A2998 RMK A01 T03410105  RH  024%=      5-min Rain = 0
KHO1 172357Z 21019G24KT 34/12 A2997 RMK A01 T03370115  RH  026%=      5-min Rain = 0
KHO1 172358Z 27014KT 33/12 A2998 RMK A01 T03320122  RH  028%=      5-min Rain = 0
KHO1 172359Z 25013KT 33/12 A2998 RMK A01 T03280123  RH  029%=      5-min Rain = 0
KHO1 180000Z 24013KT 33/12 A2998 RMK A01 T03250124  RH  029%=      5-min Rain = 0
KHO1 180001Z 25015KT 32/12 A2998 RMK A01 T03220124  RH  030%=      5-min Rain = 0
KHO1 180002Z 25014KT 32/13 A2998 RMK A01 T03200125  RH  030%=      5-min Rain = 0
KHO1 180003Z 24013KT 32/13 A2998 RMK A01 T03190126  RH  031%=      5-min Rain = 0
KHO1 180004Z 24015KT 32/13 A2998 RMK A01 T03170126  RH  031%=      5-min Rain = 0
KHO1 180005Z 24013KT 31/13 A2998 RMK A01 T03140126  RH  032%=      5-min Rain = 0
KHO1 180006Z 25012KT 31/13 A2999 RMK A01 T03130127  RH  032%=      5-min Rain = 0
KHO1 180007Z 25011KT 31/13 A2999 RMK A01 T03130128  RH  032%=      5-min Rain = 0
KHO1 180008Z 24012KT 31/13 A2999 RMK A01 T03130128  RH  032%=      5-min Rain = 0
KHO1 180009Z 25012KT 31/13 A2999 RMK A01 T03130128  RH  032%=      5-min Rain = 0
KHO1 180010Z 25010KT 31/13 A2999 RMK A01 T03130128  RH  032%=      5-min Rain = 0
KHO1 180011Z 26011KT 31/13 A2999 RMK A01 T03130127  RH  032%=      5-min Rain = 0
KHO1 180012Z 26011KT 31/13 A2999 RMK A01 T03130126  RH  032%=      5-min Rain = 0
KHO1 180013Z 25011KT 31/13 A2999 RMK A01 T03130126  RH  032%=      5-min Rain = 0
KHO1 180014Z 25010KT 31/13 A2999 RMK A01 T03130126  RH  032%=      5-min Rain = 0
KHO1 180015Z 25010KT 31/13 A2999 RMK A01 T03130126  RH  032%=      5-min Rain = 0
KHO1 180016Z 25009KT 31/13 A2999 RMK A01 T03130126  RH  032%=      5-min Rain = 0
KHO1 180017Z 25008KT 31/13 A2999 RMK A01 T03130127  RH  032%=      5-min Rain = 0
KHO1 180018Z 25011KT 31/13 A30 RMK A01 T03130126  RH  032%=      5-min Rain = 0
KHO1 180019Z 25011KT 31/13 A30 RMK A01 T03130125  RH  032%=      5-min Rain = 0
KHO1 180020Z 25011KT 31/13 A30 RMK A01 T03120126  RH  032%=      5-min Rain = 0
KHO1 180021Z 27010KT 31/13 A30 RMK A01 T03130127  RH  032%=      5-min Rain = 0
KHO1 180022Z 26017KT 31/13 A30 RMK A01 T03120130  RH  033%=      5-min Rain = 0
KHO1 180023Z 25018KT 31/13 A3001 RMK A01 T03070133  RH  034%=      5-min Rain = 0
KHO1 180024Z 25017KT 30/13 A3001 RMK A01 T03030131  RH  035%=      5-min Rain = 0
KHO1 180025Z 25015KT 30/13 A3001 RMK A01 T03020130  RH  035%=      5-min Rain = 0
KHO1 180026Z 23017KT 30/13 A3001 RMK A01 T03010128  RH  035%=      5-min Rain = 0
KHO1 180027Z 24013KT 30/13 A3001 RMK A01 T03000129  RH  035%=      5-min Rain = 0
KHO1 180028Z 25012KT 30/13 A3001 RMK A01 T02990131  RH  036%=      5-min Rain = 0
KHO1 180029Z 24014KT 30/13 A3001 RMK A01 T02980132  RH  036%=      5-min Rain = 0
KHO1 180030Z 24016G22KT 30/14 A30 RMK A01 T02970135  RH  037%=      5-min Rain = 0
KHO1 180031Z 24019KT 29/14 A3001 RMK A01 T02930137  RH  038%=      5-min Rain = 0
KHO1 180032Z 24014KT 29/14 A30 RMK A01 T02910139  RH  039%=      5-min Rain = 0
KHO1 180033Z 23016KT 29/14 A3001 RMK A01 T02900140  RH  040%=      5-min Rain = 0
KHO1 180034Z 24013KT 29/14 A3001 RMK A01 T02880141  RH  040%=      5-min Rain = 0
KHO1 180035Z 24013KT 29/14 A3001 RMK A01 T02880142  RH  041%=      5-min Rain = 0
KHO1 180036Z 24015KT 29/14 A3001 RMK A01 T02870143  RH  041%=      5-min Rain = 0
KHO1 180037Z 24014G19KT 29/15 A3001 RMK A01 T02870145  RH  042%=      5-min Rain = 0
KHO1 180038Z 24015KT 29/15 A3002 RMK A01 T02850148  RH  043%=      5-min Rain = 0
KHO1 180039Z 24012KT 28/15 A3002 RMK A01 T02840150  RH  044%=      5-min Rain = 0
KHO1 180040Z 25013KT 28/15 A3002 RMK A01 T02820153  RH  045%=      5-min Rain = 0
KHO1 180041Z 25013KT 28/16 A3002 RMK A01 T02800155  RH  046%=      5-min Rain = 0
KHO1 180042Z 26014KT 28/16 A3002 RMK A01 T02790156  RH  047%=      5-min Rain = 0
KHO1 180043Z 25013KT 28/16 A3002 RMK A01 T02770156  RH  048%=      5-min Rain = 0
KHO1 180044Z 26012KT 28/16 A3002 RMK A01 T02760156  RH  048%=      5-min Rain = 0
KHO1 180045Z 26013KT 28/16 A3002 RMK A01 T02760156  RH  048%=      5-min Rain = 0
KHO1 180046Z 27011KT 28/16 A3002 RMK A01 T02750158  RH  049%=      5-min Rain = 0
KHO1 180047Z 28012KT 28/16 A3003 RMK A01 T02750159  RH  049%=      5-min Rain = 0
KHO1 180048Z 28011KT 27/16 A3003 RMK A01 T02740158  RH  049%=      5-min Rain = 0
KHO1 180049Z 30011KT 27/16 A3003 RMK A01 T02730159  RH  050%=      5-min Rain = 0
KHO1 180050Z 31011KT 27/16 A3003 RMK A01 T02720161  RH  051%=      5-min Rain = 0
KHO1 180051Z 30010KT 27/16 A3004 RMK A01 T02710162  RH  051%=      5-min Rain = 0
KHO1 180052Z 30009KT 27/16 A3004 RMK A01 T02700163  RH  052%=      5-min Rain = 0
KHO1 180053Z 29009KT 27/16 A3004 RMK A01 T02690162  RH  052%=      5-min Rain = 0
KHO1 180054Z 29009KT 27/16 A3004 RMK A01 T02700162  RH  052%=      5-min Rain = 0
KHO1 180055Z 27009KT 27/16 A3004 RMK A01 T02700162  RH  052%=      5-min Rain = 0
KHO1 180056Z 28009KT 27/16 A3003 RMK A01 T02700161  RH  051%=      5-min Rain = 0
KHO1 180057Z 28007KT 27/16 A3003 RMK A01 T02710161  RH  051%=      5-min Rain = 0
KHO1 180058Z 29010KT 27/16 A3003 RMK A01 T02710161  RH  051%=      5-min Rain = 0
KHO1 180059Z 29011KT 27/16 A3003 RMK A01 T02700161  RH  051%=      5-min Rain = 0
KHO1 180100Z 28009KT 27/16 A3003 RMK A01 T02700160  RH  051%=      5-min Rain = 0
KHO1 180101Z 28013G20KT 27/16 A3003 RMK A01 T02700160  RH  051%=      5-min Rain = 0
KHO1 180102Z 27013KT 27/16 A3003 RMK A01 T02700158  RH  051%=      5-min Rain = 0
KHO1 180103Z 27010KT 27/16 A3003 RMK A01 T02700160  RH  051%=      5-min Rain = 0
KHO1 180104Z 27011KT 27/16 A3003 RMK A01 T02700160  RH  051%=      5-min Rain = 0
KHO1 180105Z 27010KT 27/16 A3003 RMK A01 T02690160  RH  051%=      5-min Rain = 0
KHO1 180106Z 26010KT 27/16 A3003 RMK A01 T02680161  RH  052%=      5-min Rain = 0
KHO1 180107Z 25009KT 27/16 A3003 RMK A01 T02670162  RH  053%=      5-min Rain = 0
KHO1 180108Z 25009KT 27/16 A3004 RMK A01 T02660164  RH  053%=      5-min Rain = 0
KHO1 180109Z 25009KT 27/17 A3004 RMK A01 T02650165  RH  054%=      5-min Rain = 0
KHO1 180110Z 25007KT 26/17 A3003 RMK A01 T02640166  RH  055%=      5-min Rain = 0
KHO1 180111Z 24009KT 26/17 A3003 RMK A01 T02630167  RH  055%=      5-min Rain = 0
KHO1 180112Z 25009KT 26/17 A3003 RMK A01 T02620167  RH  056%=      5-min Rain = 0
KHO1 180113Z 27010KT 26/17 A3003 RMK A01 T02610167  RH  056%=      5-min Rain = 0
KHO1 180114Z 26009KT 26/17 A3003 RMK A01 T02590169  RH  057%=      5-min Rain = 0
KHO1 180115Z 28009KT 26/17 A3003 RMK A01 T02580170  RH  058%=      5-min Rain = 0
KHO1 180116Z 28009KT 26/17 A3003 RMK A01 T02570170  RH  058%=      5-min Rain = 0
KHO1 180117Z 29009KT 26/17 A3003 RMK A01 T02560170  RH  059%=      5-min Rain = 0
KHO1 180118Z 28009KT 26/17 A3003 RMK A01 T02550170  RH  059%=      5-min Rain = 0
KHO1 180119Z 29009KT 25/17 A3003 RMK A01 T02540170  RH  060%=      5-min Rain = 0
KHO1 180120Z 29010KT 25/17 A3003 RMK A01 T02530170  RH  060%=      5-min Rain = 0
KHO1 180121Z 28010KT 25/17 A3002 RMK A01 T02520170  RH  060%=      5-min Rain = 0
KHO1 180122Z 28010KT 25/17 A3002 RMK A01 T02510169  RH  060%=      5-min Rain = 0
KHO1 180123Z 27009KT 25/17 A3002 RMK A01 T02510169  RH  060%=      5-min Rain = 0
KHO1 180124Z 27009KT 25/17 A3002 RMK A01 T02510169  RH  060%=      5-min Rain = 0
KHO1 180125Z 27010KT 25/17 A3002 RMK A01 T02510169  RH  060%=      5-min Rain = 0
KHO1 180126Z 27009KT 25/17 A3002 RMK A01 T02510169  RH  061%=      5-min Rain = 0
KHO1 180127Z 27008KT 25/17 A3002 RMK A01 T02500170  RH  061%=      5-min Rain = 0
KHO1 180128Z 27005KT 25/17 A3002 RMK A01 T02500171  RH  061%=      5-min Rain = 0
KHO1 180129Z 27008KT 25/17 A3002 RMK A01 T02500171  RH  061%=      5-min Rain = 0
KHO1 180130Z 26007KT 25/17 A3002 RMK A01 T02490170  RH  061%=      5-min Rain = 0
KHO1 180131Z 26008KT 25/17 A3002 RMK A01 T02490168  RH  061%=      5-min Rain = 0
KHO1 180132Z 26010KT 25/17 A3002 RMK A01 T02490165  RH  060%=      5-min Rain = 0
KHO1 180133Z 26009KT 25/16 A3002 RMK A01 T02490164  RH  059%=      5-min Rain = 0
KHO1 180134Z 26009KT 25/16 A3001 RMK A01 T02500164  RH  059%=      5-min Rain = 0
KHO1 180135Z 26009KT 25/17 A3001 RMK A01 T02490165  RH  059%=      5-min Rain = 0
KHO1 180136Z 25009KT 25/17 A3002 RMK A01 T02490166  RH  060%=      5-min Rain = 0
KHO1 180137Z 24009KT 25/17 A3002 RMK A01 T02490165  RH  060%=      5-min Rain = 0
KHO1 180138Z 23010KT 25/16 A3002 RMK A01 T02490164  RH  059%=      5-min Rain = 0
KHO1 180139Z 22008KT 25/17 A3002 RMK A01 T02500166  RH  059%=      5-min Rain = 0
KHO1 180140Z 20007KT 25/17 A3001 RMK A01 T02490167  RH  060%=      5-min Rain = 0
KHO1 180141Z 21005KT 25/17 A3001 RMK A01 T02490167  RH  060%=      5-min Rain = 0
KHO1 180142Z 20007KT 25/17 A3001 RMK A01 T02490166  RH  060%=      5-min Rain = 0
KHO1 180143Z 20006KT 25/17 A3001 RMK A01 T02490165  RH  060%=      5-min Rain = 0
KHO1 180144Z 19007KT 25/17 A3001 RMK A01 T02480166  RH  060%=      5-min Rain = 0
KHO1 180145Z 19006KT 25/17 A3001 RMK A01 T02480167  RH  061%=      5-min Rain = 0
KHO1 180146Z 19007KT 25/17 A3001 RMK A01 T02480166  RH  060%=      5-min Rain = 0
KHO1 180147Z 17006KT 25/17 A3001 RMK A01 T02480168  RH  061%=      5-min Rain = 0
KHO1 180148Z 16007KT 25/17 A3001 RMK A01 T02470171  RH  062%=      5-min Rain = 0
KHO1 180149Z 17007KT 25/17 A3001 RMK A01 T02460172  RH  063%=      5-min Rain = 0
KHO1 180150Z 18006KT 25/17 A3001 RMK A01 T02450172  RH  064%=      5-min Rain = 0
KHO1 180151Z 18006KT 25/17 A3001 RMK A01 T02450172  RH  064%=      5-min Rain = 0
KHO1 180152Z 18006KT 25/17 A3001 RMK A01 T02450173  RH  064%=      5-min Rain = 0
KHO1 180153Z 19005KT 25/17 A3001 RMK A01 T02450173  RH  064%=      5-min Rain = 0
KHO1 180154Z 19003KT 25/17 A3001 RMK A01 T02450174  RH  065%=      5-min Rain = 0
KHO1 180155Z 20003KT 25/17 A3001 RMK A01 T02450174  RH  065%=      5-min Rain = 0
KHO1 180156Z 19003KT 25/17 A3001 RMK A01 T02450174  RH  065%=      5-min Rain = 0
KHO1 180157Z 19003KT 25/17 A30 RMK A01 T02450174  RH  064%=      5-min Rain = 0
KHO1 180158Z 20002KT 25/17 A30 RMK A01 T02450174  RH  065%=      5-min Rain = 0
KHO1 180159Z 20004KT 25/17 A30 RMK A01 T02450174  RH  064%=      5-min Rain = 0
KHO1 180200Z 19004KT 25/17 A30 RMK A01 T02460174  RH  064%=      5-min Rain = 0
KHO1 180201Z 20004KT 25/17 A30 RMK A01 T02460173  RH  064%=      5-min Rain = 0
KHO1 180202Z 21005KT 25/17 A30 RMK A01 T02460173  RH  064%=      5-min Rain = 0
KHO1 180203Z 20005KT 25/17 A30 RMK A01 T02460173  RH  064%=      5-min Rain = 0
KHO1 180204Z 20004KT 25/17 A30 RMK A01 T02460174  RH  064%=      5-min Rain = 0
KHO1 180205Z 20004KT 25/17 A30 RMK A01 T02470174  RH  064%=      5-min Rain = 0
KHO1 180206Z 20005KT 25/17 A30 RMK A01 T02470174  RH  064%=      5-min Rain = 0
KHO1 180207Z 21005KT 25/17 A30 RMK A01 T02470172  RH  063%=      5-min Rain = 0
KHO1 180208Z 21004KT 25/17 A30 RMK A01 T02470173  RH  063%=      5-min Rain = 0
KHO1 180209Z 21003KT 25/17 A30 RMK A01 T02480173  RH  063%=      5-min Rain = 0
KHO1 180210Z 22003KT 25/17 A30 RMK A01 T02480172  RH  063%=      5-min Rain = 0
KHO1 180211Z 22003KT 25/17 A30 RMK A01 T02490171  RH  062%=      5-min Rain = 0
KHO1 180212Z 23002KT 25/17 A30 RMK A01 T02490171  RH  062%=      5-min Rain = 0
KHO1 180213Z 24003KT 25/17 A30 RMK A01 T02500169  RH  061%=      5-min Rain = 0
KHO1 180214Z 24003KT 25/17 A30 RMK A01 T02510168  RH  060%=      5-min Rain = 0
KHO1 180215Z 25003KT 25/17 A30 RMK A01 T02510168  RH  060%=      5-min Rain = 0
KHO1 180216Z 25004KT 25/17 A30 RMK A01 T02520167  RH  059%=      5-min Rain = 0
KHO1 180217Z 24003KT 25/17 A30 RMK A01 T02530167  RH  059%=      5-min Rain = 0
KHO1 180218Z 23003KT 25/17 A30 RMK A01 T02540167  RH  059%=      5-min Rain = 0
KHO1 180219Z 22003KT 25/17 A30 RMK A01 T02540167  RH  058%=      5-min Rain = 0
KHO1 180220Z 21003KT 26/17 A30 RMK A01 T02550166  RH  058%=      5-min Rain = 0
KHO1 180221Z 20004KT 26/17 A30 RMK A01 T02550166  RH  058%=      5-min Rain = 0
KHO1 180222Z 19003KT 26/17 A30 RMK A01 T02560165  RH  057%=      5-min Rain = 0
KHO1 180223Z 19002KT 26/17 A30 RMK A01 T02560165  RH  057%=      5-min Rain = 0
KHO1 180224Z 19003KT 26/16 A30 RMK A01 T02560164  RH  057%=      5-min Rain = 0
KHO1 180225Z 18004KT 26/16 A30 RMK A01 T02570163  RH  056%=      5-min Rain = 0
KHO1 180226Z 18007KT 26/16 A30 RMK A01 T02570162  RH  056%=      5-min Rain = 0
KHO1 180227Z 17009KT 26/16 A3001 RMK A01 T02570164  RH  056%=      5-min Rain = 0
KHO1 180228Z 17011KT 26/16 A3001 RMK A01 T02560164  RH  057%=      5-min Rain = 0
KHO1 180229Z 17011KT 26/16 A3001 RMK A01 T02560163  RH  056%=      5-min Rain = 0
KHO1 180230Z 18012KT 26/16 A3001 RMK A01 T02570159  RH  055%=      5-min Rain = 0
KHO1 180231Z 19007KT 26/16 A30 RMK A01 T02580157  RH  053%=      5-min Rain = 0
KHO1 180232Z 20005KT 26/16 A30 RMK A01 T02590157  RH  053%=      5-min Rain = 0
KHO1 180233Z 20004KT 26/16 A30 RMK A01 T02590156  RH  053%=      5-min Rain = 0
KHO1 180234Z 20005KT 26/15 A30 RMK A01 T02590154  RH  052%=      5-min Rain = 0
KHO1 180235Z 19006KT 26/15 A30 RMK A01 T02600154  RH  052%=      5-min Rain = 0
KHO1 180236Z 18008KT 26/15 A30 RMK A01 T02600152  RH  051%=      5-min Rain = 0
KHO1 180237Z 17012KT 26/15 A3001 RMK A01 T02610150  RH  050%=      5-min Rain = 0
KHO1 180238Z 17014KT 26/15 A3001 RMK A01 T02630148  RH  049%=      5-min Rain = 0
KHO1 180239Z 17017G22KT 27/15 A3001 RMK A01 T02650148  RH  049%=      5-min Rain = 0
KHO1 180240Z 17018KT 26/15 A3001 RMK A01 T02640149  RH  049%=      5-min Rain = 0
KHO1 180241Z 16018KT 26/15 A3001 RMK A01 T02640148  RH  049%=      5-min Rain = 0
KHO1 180242Z 16020KT 27/15 A3001 RMK A01 T02650149  RH  049%=      5-min Rain = 0
KHO1 180243Z 16019KT 27/15 A3001 RMK A01 T02650149  RH  049%=      5-min Rain = 0
KHO1 180244Z 17020KT 26/15 A3001 RMK A01 T02640149  RH  049%=      5-min Rain = 0
KHO1 180245Z 17017G22KT 26/15 A3001 RMK A01 T02640149  RH  049%=      5-min Rain = 0
KHO1 180246Z 17016KT 26/15 A3001 RMK A01 T02640148  RH  049%=      5-min Rain = 0
KHO1 180247Z 17015G20KT 26/15 A3001 RMK A01 T02640148  RH  049%=      5-min Rain = 0
KHO1 180248Z 17015KT 26/15 A3001 RMK A01 T02640147  RH  049%=      5-min Rain = 0
KHO1 180249Z 17015KT 26/15 A3002 RMK A01 T02640147  RH  048%=      5-min Rain = 0
KHO1 180250Z 17018KT 26/15 A3002 RMK A01 T02640146  RH  048%=      5-min Rain = 0
KHO1 180251Z 17017KT 27/15 A3001 RMK A01 T02650145  RH  048%=      5-min Rain = 0
KHO1 180252Z 17018KT 27/14 A3001 RMK A01 T02650144  RH  047%=      5-min Rain = 0
KHO1 180253Z 17013KT 27/14 A3002 RMK A01 T02650144  RH  047%=      5-min Rain = 0
KHO1 180254Z 17015KT 27/14 A3002 RMK A01 T02650143  RH  047%=      5-min Rain = 0
KHO1 180255Z 17016KT 27/14 A3002 RMK A01 T02650142  RH  047%=      5-min Rain = 0
KHO1 180256Z 17015KT 27/14 A3002 RMK A01 T02650141  RH  046%=      5-min Rain = 0
KHO1 180257Z 17018KT 27/14 A3002 RMK A01 T02650140  RH  046%=      5-min Rain = 0
KHO1 180258Z 17014G19KT 27/14 A3002 RMK A01 T02660140  RH  046%=      5-min Rain = 0
KHO1 180259Z 17016KT 27/14 A3002 RMK A01 T02660139  RH  046%=      5-min Rain = 0
KHO1 180300Z 17017KT 27/14 A3002 RMK A01 T02660139  RH  046%=      5-min Rain = 0
KHO1 180301Z 17018KT 27/14 A3002 RMK A01 T02660139  RH  046%=      5-min Rain = 0
KHO1 180302Z 17016KT 27/14 A3002 RMK A01 T02660139  RH  046%=      5-min Rain = 0
KHO1 180303Z 17016KT 27/14 A3002 RMK A01 T02650140  RH  046%=      5-min Rain = 0
KHO1 180304Z 16017G23KT 27/14 A3002 RMK A01 T02650140  RH  046%=      5-min Rain = 0
KHO1 180305Z 16019KT 26/14 A3002 RMK A01 T02640142  RH  047%=      5-min Rain = 0
KHO1 180306Z 16017KT 26/14 A3002 RMK A01 T02630142  RH  047%=      5-min Rain = 0
KHO1 180307Z 16014G19KT 26/14 A3001 RMK A01 T02630142  RH  047%=      5-min Rain = 0
KHO1 180308Z 16013KT 26/14 A3002 RMK A01 T02620142  RH  047%=      5-min Rain = 0
KHO1 180309Z 16013KT 26/14 A3002 RMK A01 T02620142  RH  047%=      5-min Rain = 0
KHO1 180310Z 16017KT 26/14 A3002 RMK A01 T02620140  RH  047%=      5-min Rain = 0
KHO1 180311Z 16016KT 26/14 A3002 RMK A01 T02630140  RH  047%=      5-min Rain = 0
KHO1 180312Z 16013KT 26/14 A3002 RMK A01 T02630141  RH  047%=      5-min Rain = 0
KHO1 180313Z 16013KT 26/14 A3002 RMK A01 T02630141  RH  047%=      5-min Rain = 0
KHO1 180314Z 16012KT 26/14 A3002 RMK A01 T02630141  RH  047%=      5-min Rain = 0
KHO1 180315Z 16013KT 26/14 A3002 RMK A01 T02630141  RH  047%=      5-min Rain = 0
KHO1 180316Z 16013KT 26/14 A3002 RMK A01 T02630141  RH  047%=      5-min Rain = 0
KHO1 180317Z 16012KT 26/14 A3001 RMK A01 T02630142  RH  047%=      5-min Rain = 0
KHO1 180318Z 16012KT 26/14 A3001 RMK A01 T02620143  RH  048%=      5-min Rain = 0
KHO1 180319Z 16013G18KT 26/14 A3001 RMK A01 T02620144  RH  048%=      5-min Rain = 0
KHO1 180320Z 16015KT 26/15 A3001 RMK A01 T02620145  RH  049%=      5-min Rain = 0
KHO1 180321Z 16015KT 26/15 A3001 RMK A01 T02620146  RH  049%=      5-min Rain = 0
KHO1 180322Z 17014KT 26/15 A3001 RMK A01 T02610147  RH  049%=      5-min Rain = 0
KHO1 180323Z 17014KT 26/15 A3001 RMK A01 T02610147  RH  049%=      5-min Rain = 0
KHO1 180324Z 16012KT 26/15 A3001 RMK A01 T02610148  RH  050%=      5-min Rain = 0
KHO1 180325Z 16011KT 26/15 A3002 RMK A01 T02610148  RH  050%=      5-min Rain = 0
KHO1 180326Z 17012KT 26/15 A3002 RMK A01 T02610148  RH  050%=      5-min Rain = 0
KHO1 180327Z 16011KT 26/15 A3002 RMK A01 T02600148  RH  050%=      5-min Rain = 0
KHO1 180328Z 16011KT 26/15 A3002 RMK A01 T02600149  RH  050%=      5-min Rain = 0
KHO1 180329Z 16012KT 26/15 A3002 RMK A01 T02600149  RH  050%=      5-min Rain = 0
KHO1 180330Z 15013KT 26/15 A3002 RMK A01 T02600149  RH  050%=      5-min Rain = 0
KHO1 180331Z 16014KT 26/15 A3002 RMK A01 T02600149  RH  050%=      5-min Rain = 0
KHO1 180332Z 16014KT 26/15 A3002 RMK A01 T02600149  RH  050%=      5-min Rain = 0
KHO1 180333Z 15013KT 26/15 A3001 RMK A01 T02600149  RH  050%=      5-min Rain = 0
KHO1 180334Z 15014KT 26/15 A3001 RMK A01 T02600149  RH  050%=      5-min Rain = 0
KHO1 180335Z 15013KT 26/15 A3001 RMK A01 T02590149  RH  050%=      5-min Rain = 0
KHO1 180336Z 15014KT 26/15 A3001 RMK A01 T02590148  RH  050%=      5-min Rain = 0
KHO1 180337Z 15012KT 26/15 A3001 RMK A01 T02590148  RH  050%=      5-min Rain = 0
KHO1 180338Z 15012KT 26/15 A3001 RMK A01 T02590148  RH  050%=      5-min Rain = 0
KHO1 180339Z 15011KT 26/15 A3001 RMK A01 T02590148  RH  050%=      5-min Rain = 0
KHO1 180340Z 15012KT 26/15 A3001 RMK A01 T02580148  RH  050%=      5-min Rain = 0
KHO1 180341Z 15012KT 26/15 A3001 RMK A01 T02580148  RH  050%=      5-min Rain = 0
KHO1 180342Z 16012KT 26/15 A3002 RMK A01 T02580148  RH  051%=      5-min Rain = 0
KHO1 180343Z 15011KT 26/15 A3002 RMK A01 T02580148  RH  051%=      5-min Rain = 0
KHO1 180344Z 16013KT 26/15 A3002 RMK A01 T02580147  RH  051%=      5-min Rain = 0
KHO1 180345Z 15012KT 26/15 A3002 RMK A01 T02580147  RH  051%=      5-min Rain = 0
KHO1 180346Z 15013KT 26/15 A3002 RMK A01 T02570147  RH  051%=      5-min Rain = 0
KHO1 180347Z 15014KT 26/15 A3002 RMK A01 T02570147  RH  050%=      5-min Rain = 0
KHO1 180348Z 15013KT 26/15 A3002 RMK A01 T02570146  RH  050%=      5-min Rain = 0
KHO1 180349Z 15012KT 26/15 A3002 RMK A01 T02570146  RH  050%=      5-min Rain = 0
KHO1 180350Z 15013KT 26/15 A3002 RMK A01 T02570145  RH  050%=      5-min Rain = 0
KHO1 180351Z 15012KT 26/15 A3002 RMK A01 T02570145  RH  050%=      5-min Rain = 0
KHO1 180352Z 15011KT 26/15 A3002 RMK A01 T02560145  RH  050%=      5-min Rain = 0
KHO1 180353Z 15011KT 26/15 A3002 RMK A01 T02560145  RH  050%=      5-min Rain = 0
KHO1 180354Z 15010KT 26/15 A3002 RMK A01 T02550145  RH  050%=      5-min Rain = 0
KHO1 180355Z 16010KT 26/15 A3002 RMK A01 T02550145  RH  050%=      5-min Rain = 0
KHO1 180356Z 16010KT 26/15 A3002 RMK A01 T02550145  RH  050%=      5-min Rain = 0
KHO1 180357Z 16008KT 26/15 A3002 RMK A01 T02550145  RH  050%=      5-min Rain = 0
KHO1 180358Z 16009KT 26/15 A3002 RMK A01 T02550145  RH  050%=      5-min Rain = 0
KHO1 180359Z 16007KT 26/15 A3002 RMK A01 T02550145  RH  050%=      5-min Rain = 0
KHO1 180400Z 16008KT 26/15 A3002 RMK A01 T02550145  RH  051%=      5-min Rain = 0
KHO1 180401Z 16007KT 25/15 A3002 RMK A01 T02540145  RH  051%=      5-min Rain = 0
KHO1 180402Z 16007KT 25/15 A3002 RMK A01 T02540145  RH  051%=      5-min Rain = 0
KHO1 180403Z 16007KT 25/15 A3002 RMK A01 T02540145  RH  051%=      5-min Rain = 0
KHO1 180404Z 16008KT 25/15 A3002 RMK A01 T02540145  RH  051%=      5-min Rain = 0
KHO1 180405Z 16007KT 25/15 A3003 RMK A01 T02540145  RH  051%=      5-min Rain = 0
KHO1 180406Z 16007KT 25/15 A3003 RMK A01 T02540145  RH  051%=      5-min Rain = 0
KHO1 180407Z 16007KT 25/15 A3003 RMK A01 T02540145  RH  051%=      5-min Rain = 0
KHO1 180408Z 15007KT 25/15 A3003 RMK A01 T02540145  RH  051%=      5-min Rain = 0
KHO1 180409Z 16008KT 25/15 A3003 RMK A01 T02540145  RH  051%=      5-min Rain = 0
KHO1 180410Z 15007KT 25/15 A3003 RMK A01 T02540145  RH  051%=      5-min Rain = 0
KHO1 180411Z 17007KT 25/15 A3003 RMK A01 T02540146  RH  051%=      5-min Rain = 0
KHO1 180412Z 17006KT 25/15 A3003 RMK A01 T02540146  RH  051%=      5-min Rain = 0
KHO1 180413Z 16008KT 25/15 A3003 RMK A01 T02530146  RH  051%=      5-min Rain = 0
KHO1 180414Z 16008KT 25/15 A3004 RMK A01 T02530147  RH  052%=      5-min Rain = 0
KHO1 180415Z 16008KT 25/15 A3004 RMK A01 T02530147  RH  052%=      5-min Rain = 0
KHO1 180416Z 17007KT 25/15 A3004 RMK A01 T02530148  RH  052%=      5-min Rain = 0
KHO1 180417Z 17007KT 25/15 A3004 RMK A01 T02520148  RH  052%=      5-min Rain = 0
KHO1 180418Z 18007KT 25/15 A3004 RMK A01 T02520149  RH  053%=      5-min Rain = 0
KHO1 180419Z 17006KT 25/15 A3004 RMK A01 T02510148  RH  053%=      5-min Rain = 0
KHO1 180420Z 18005KT 25/15 A3004 RMK A01 T02510148  RH  053%=      5-min Rain = 0
KHO1 180421Z 17006KT 25/15 A3004 RMK A01 T02500149  RH  053%=      5-min Rain = 0
KHO1 180422Z 16006KT 25/15 A3004 RMK A01 T02490149  RH  054%=      5-min Rain = 0
KHO1 180423Z 16006KT 25/15 A3004 RMK A01 T02490149  RH  054%=      5-min Rain = 0
KHO1 180424Z 17005KT 25/15 A3004 RMK A01 T02490149  RH  054%=      5-min Rain = 0
KHO1 180425Z 19003KT 25/15 A3004 RMK A01 T02490149  RH  054%=      5-min Rain = 0
KHO1 180426Z 20002KT 25/15 A3004 RMK A01 T02480149  RH  054%=      5-min Rain = 0
KHO1 180427Z 20003KT 25/15 A3004 RMK A01 T02480149  RH  054%=      5-min Rain = 0
KHO1 180428Z 20004KT 25/15 A3004 RMK A01 T02470148  RH  054%=      5-min Rain = 0
KHO1 180429Z 20004KT 25/15 A3004 RMK A01 T02470149  RH  054%=      5-min Rain = 0
KHO1 180430Z 20002KT 25/15 A3004 RMK A01 T02470149  RH  054%=      5-min Rain = 0
KHO1 180431Z 20002KT 25/15 A3004 RMK A01 T02470148  RH  054%=      5-min Rain = 0
KHO1 180432Z 21003KT 25/15 A3004 RMK A01 T02470149  RH  054%=      5-min Rain = 0
KHO1 180433Z 20004KT 25/15 A3004 RMK A01 T02460148  RH  055%=      5-min Rain = 0
KHO1 180434Z 21003KT 25/15 A3004 RMK A01 T02450149  RH  055%=      5-min Rain = 0
KHO1 180435Z 20003KT 24/15 A3004 RMK A01 T02440148  RH  055%=      5-min Rain = 0
KHO1 180436Z 20003KT 24/15 A3004 RMK A01 T02440148  RH  055%=      5-min Rain = 0
KHO1 180437Z 19003KT 24/15 A3004 RMK A01 T02440148  RH  055%=      5-min Rain = 0
KHO1 180438Z 18004KT 24/15 A3004 RMK A01 T02440148  RH  055%=      5-min Rain = 0
KHO1 180439Z 18004KT 24/15 A3004 RMK A01 T02440148  RH  055%=      5-min Rain = 0
KHO1 180440Z 18003KT 24/15 A3004 RMK A01 T02440148  RH  055%=      5-min Rain = 0
KHO1 180441Z 19003KT 24/15 A3003 RMK A01 T02440148  RH  055%=      5-min Rain = 0
KHO1 180442Z 20003KT 24/15 A3003 RMK A01 T02440148  RH  055%=      5-min Rain = 0
KHO1 180443Z 20003KT 24/15 A3004 RMK A01 T02440148  RH  055%=      5-min Rain = 0
KHO1 180444Z 21002KT 24/15 A3004 RMK A01 T02440148  RH  055%=      5-min Rain = 0
KHO1 180445Z 19004KT 24/15 A3004 RMK A01 T02440148  RH  055%=      5-min Rain = 0
KHO1 180446Z 20004KT 24/15 A3004 RMK A01 T02440148  RH  055%=      5-min Rain = 0
KHO1 180447Z 21002KT 24/15 A3004 RMK A01 T02440148  RH  055%=      5-min Rain = 0
KHO1 180448Z 21003KT 24/15 A3004 RMK A01 T02440148  RH  055%=      5-min Rain = 0
KHO1 180449Z 21003KT 24/15 A3004 RMK A01 T02440148  RH  055%=      5-min Rain = 0
KHO1 180450Z 21002KT 24/15 A3004 RMK A01 T02440147  RH  055%=      5-min Rain = 0
KHO1 180451Z 21002KT 24/15 A3004 RMK A01 T02430147  RH  055%=      5-min Rain = 0
KHO1 180452Z 21003KT 24/15 A3004 RMK A01 T02430148  RH  055%=      5-min Rain = 0
KHO1 180453Z 21003KT 24/15 A3004 RMK A01 T02420147  RH  055%=      5-min Rain = 0
KHO1 180454Z 21003KT 24/15 A3004 RMK A01 T02420147  RH  055%=      5-min Rain = 0
KHO1 180455Z 22003KT 24/15 A3004 RMK A01 T02420147  RH  055%=      5-min Rain = 0
KHO1 180456Z 23002KT 24/15 A3004 RMK A01 T02420147  RH  055%=      5-min Rain = 0
KHO1 180457Z 22002KT 24/15 A3004 RMK A01 T02420147  RH  056%=      5-min Rain = 0
KHO1 180458Z 22003KT 24/15 A3004 RMK A01 T02420147  RH  055%=      5-min Rain = 0
KHO1 180459Z 22002KT 24/15 A3004 RMK A01 T02430147  RH  055%=      5-min Rain = 0

Page generated in 0.0831 seconds.